<?xml version="1.0" encoding="UTF-8" standalone="no" ?><gpx xmlns="http://www.topografix.com/GPX/1/1" xmlns:gpxx="http://www.garmin.com/xmlschemas/GpxExtensions/v3" xmlns:wptx1="http://www.garmin.com/xmlschemas/WaypointExtension/v1" xmlns:gpxtpx="http://www.garmin.com/xmlschemas/TrackPointExtension/v1" creator="Dakota 20" version="1.1" xmlns:xsi="http://www.w3.org/2001/XMLSchema-instance" xsi:schemaLocation="http://www.topografix.com/GPX/1/1 http://www.topografix.com/GPX/1/1/gpx.xsd http://www.garmin.com/xmlschemas/GpxExtensions/v3 http://www8.garmin.com/xmlschemas/GpxExtensionsv3.xsd http://www.garmin.com/xmlschemas/WaypointExtension/v1 http://www8.garmin.com/xmlschemas/WaypointExtensionv1.xsd http://www.garmin.com/xmlschemas/TrackPointExtension/v1 http://www.garmin.com/xmlschemas/TrackPointExtensionv1.xsd"><metadata><link href="http://www.garmin.com"><text>Garmin International</text></link><time>2014-07-17T13:55:49Z</time></metadata><trk><name>Current Track: 16 JUL 2014 10:06</name><extensions><gpxx:TrackExtension><gpxx:DisplayColor>Cyan</gpxx:DisplayColor></gpxx:TrackExtension></extensions><trkseg><trkpt lat="51.8570675142" lon="-2.0017743297"><ele>253.93</ele><time>2014-07-16T09:06:51Z</time></trkpt><trkpt lat="51.8570584618" lon="-2.0018030796"><ele>261.14</ele><time>2014-07-16T09:07:01Z</time></trkpt><trkpt lat="51.8570557795" lon="-2.0018135570"><ele>253.44</ele><time>2014-07-16T09:07:02Z</time></trkpt><trkpt lat="51.8570439611" lon="-2.0019067638"><ele>252.96</ele><time>2014-07-16T09:07:09Z</time></trkpt><trkpt lat="51.8570663407" lon="-2.0021464862"><ele>252.96</ele><time>2014-07-16T09:07:24Z</time></trkpt><trkpt lat="51.8570795842" lon="-2.0022837818"><ele>252.00</ele><time>2014-07-16T09:07:41Z</time></trkpt><trkpt lat="51.8570207432" lon="-2.0026238356"><ele>252.00</ele><time>2014-07-16T09:07:58Z</time></trkpt><trkpt lat="51.8568687793" lon="-2.0029084012"><ele>251.52</ele><time>2014-07-16T09:08:14Z</time></trkpt><trkpt lat="51.8567944318" lon="-2.0030892827"><ele>251.04</ele><time>2014-07-16T09:08:27Z</time></trkpt><trkpt lat="51.8567080982" lon="-2.0032520592"><ele>250.08</ele><time>2014-07-16T09:08:42Z</time></trkpt><trkpt lat="51.8566485029" lon="-2.0033751894"><ele>249.60</ele><time>2014-07-16T09:08:50Z</time></trkpt><trkpt lat="51.8565465789" lon="-2.0035525504"><ele>249.12</ele><time>2014-07-16T09:09:03Z</time></trkpt><trkpt lat="51.8564953655" lon="-2.0036500320"><ele>248.16</ele><time>2014-07-16T09:09:09Z</time></trkpt><trkpt lat="51.8564043380" lon="-2.0038301591"><ele>245.75</ele><time>2014-07-16T09:09:23Z</time></trkpt><trkpt lat="51.8563323375" lon="-2.0039245393"><ele>245.75</ele><time>2014-07-16T09:09:33Z</time></trkpt><trkpt lat="51.8562609237" lon="-2.0040682051"><ele>243.83</ele><time>2014-07-16T09:09:46Z</time></trkpt><trkpt lat="51.8561521266" lon="-2.0042887330"><ele>242.87</ele><time>2014-07-16T09:10:00Z</time></trkpt><trkpt lat="51.8561231252" lon="-2.0043731388"><ele>242.39</ele><time>2014-07-16T09:10:05Z</time></trkpt><trkpt lat="51.8560160045" lon="-2.0045895595"><ele>242.39</ele><time>2014-07-16T09:10:22Z</time></trkpt><trkpt lat="51.8558894377" lon="-2.0047753863"><ele>240.95</ele><time>2014-07-16T09:10:39Z</time></trkpt><trkpt lat="51.8558126595" lon="-2.0048820041"><ele>240.95</ele><time>2014-07-16T09:10:48Z</time></trkpt><trkpt lat="51.8557727616" lon="-2.0050277654"><ele>239.99</ele><time>2014-07-16T09:11:01Z</time></trkpt><trkpt lat="51.8556407467" lon="-2.0051936433"><ele>239.99</ele><time>2014-07-16T09:11:17Z</time></trkpt><trkpt lat="51.8555017747" lon="-2.0053417515"><ele>238.54</ele><time>2014-07-16T09:11:35Z</time></trkpt><trkpt lat="51.8554297742" lon="-2.0055252314"><ele>238.06</ele><time>2014-07-16T09:11:50Z</time></trkpt><trkpt lat="51.8553373218" lon="-2.0057123993"><ele>236.14</ele><time>2014-07-16T09:12:07Z</time></trkpt><trkpt lat="51.8552197237" lon="-2.0059338491"><ele>234.70</ele><time>2014-07-16T09:12:23Z</time></trkpt><trkpt lat="51.8551209848" lon="-2.0060446579"><ele>232.78</ele><time>2014-07-16T09:12:42Z</time></trkpt><trkpt lat="51.8549105152" lon="-2.0061016548"><ele>230.37</ele><time>2014-07-16T09:13:02Z</time></trkpt><trkpt lat="51.8547836971" lon="-2.0061302371"><ele>227.01</ele><time>2014-07-16T09:13:23Z</time></trkpt><trkpt lat="51.8545405380" lon="-2.0061698835"><ele>226.53</ele><time>2014-07-16T09:13:42Z</time></trkpt><trkpt lat="51.8543334212" lon="-2.0062588993"><ele>225.09</ele><time>2014-07-16T09:14:01Z</time></trkpt><trkpt lat="51.8542082794" lon="-2.0063003898"><ele>221.72</ele><time>2014-07-16T09:14:21Z</time></trkpt><trkpt lat="51.8539980613" lon="-2.0064930059"><ele>220.28</ele><time>2014-07-16T09:14:37Z</time></trkpt><trkpt lat="51.8538838159" lon="-2.0066202432"><ele>218.36</ele><time>2014-07-16T09:14:49Z</time></trkpt><trkpt lat="51.8538068701" lon="-2.0067035593"><ele>217.88</ele><time>2014-07-16T09:14:57Z</time></trkpt><trkpt lat="51.8536273297" lon="-2.0069246739"><ele>217.40</ele><time>2014-07-16T09:15:17Z</time></trkpt><trkpt lat="51.8535853364" lon="-2.0070229936"><ele>216.91</ele><time>2014-07-16T09:15:33Z</time></trkpt><trkpt lat="51.8535264116" lon="-2.0073176175"><ele>215.47</ele><time>2014-07-16T09:15:50Z</time></trkpt><trkpt lat="51.8534088135" lon="-2.0076171029"><ele>214.51</ele><time>2014-07-16T09:16:11Z</time></trkpt><trkpt lat="51.8532696739" lon="-2.0077660494"><ele>213.07</ele><time>2014-07-16T09:16:30Z</time></trkpt><trkpt lat="51.8531042151" lon="-2.0079217851"><ele>211.63</ele><time>2014-07-16T09:16:49Z</time></trkpt><trkpt lat="51.8529571965" lon="-2.0081377868"><ele>209.70</ele><time>2014-07-16T09:17:10Z</time></trkpt><trkpt lat="51.8528286181" lon="-2.0082211029"><ele>208.74</ele><time>2014-07-16T09:17:29Z</time></trkpt><trkpt lat="51.8525595590" lon="-2.0083835442"><ele>207.30</ele><time>2014-07-16T09:17:51Z</time></trkpt><trkpt lat="51.8523531128" lon="-2.0084637590"><ele>206.82</ele><time>2014-07-16T09:18:10Z</time></trkpt><trkpt lat="51.8520900048" lon="-2.0084444806"><ele>204.90</ele><time>2014-07-16T09:18:29Z</time></trkpt><trkpt lat="51.8519756757" lon="-2.0086526871"><ele>204.90</ele><time>2014-07-16T09:18:48Z</time></trkpt><trkpt lat="51.8518060260" lon="-2.0087261125"><ele>205.38</ele><time>2014-07-16T09:19:04Z</time></trkpt><trkpt lat="51.8516998272" lon="-2.0087530185"><ele>204.90</ele><time>2014-07-16T09:19:15Z</time></trkpt><trkpt lat="51.8516802974" lon="-2.0087579638"><ele>205.38</ele><time>2014-07-16T09:19:17Z</time></trkpt><trkpt lat="51.8516285811" lon="-2.0087930001"><ele>204.90</ele><time>2014-07-16T09:19:22Z</time></trkpt><trkpt lat="51.8514884356" lon="-2.0089241769"><ele>204.90</ele><time>2014-07-16T09:19:38Z</time></trkpt><trkpt lat="51.8514870107" lon="-2.0089519210"><ele>205.86</ele><time>2014-07-16T09:19:54Z</time></trkpt><trkpt lat="51.8514768686" lon="-2.0089556091"><ele>205.86</ele><time>2014-07-16T09:19:56Z</time></trkpt><trkpt lat="51.8513285089" lon="-2.0090741292"><ele>206.34</ele><time>2014-07-16T09:20:12Z</time></trkpt><trkpt lat="51.8513138406" lon="-2.0091082435"><ele>205.38</ele><time>2014-07-16T09:20:15Z</time></trkpt><trkpt lat="51.8512157723" lon="-2.0093972515"><ele>206.34</ele><time>2014-07-16T09:20:33Z</time></trkpt><trkpt lat="51.8511773832" lon="-2.0094958227"><ele>206.82</ele><time>2014-07-16T09:20:40Z</time></trkpt><trkpt lat="51.8511241581" lon="-2.0097952243"><ele>206.82</ele><time>2014-07-16T09:20:56Z</time></trkpt><trkpt lat="51.8510831706" lon="-2.0100369584"><ele>208.26</ele><time>2014-07-16T09:21:10Z</time></trkpt><trkpt lat="51.8510486372" lon="-2.0103112981"><ele>208.26</ele><time>2014-07-16T09:21:26Z</time></trkpt><trkpt lat="51.8510072306" lon="-2.0105679519"><ele>207.78</ele><time>2014-07-16T09:21:43Z</time></trkpt><trkpt lat="51.8509709369" lon="-2.0107874740"><ele>208.26</ele><time>2014-07-16T09:21:59Z</time></trkpt><trkpt lat="51.8509371579" lon="-2.0110784937"><ele>210.19</ele><time>2014-07-16T09:22:15Z</time></trkpt><trkpt lat="51.8509056419" lon="-2.0113120135"><ele>209.70</ele><time>2014-07-16T09:22:30Z</time></trkpt><trkpt lat="51.8508980982" lon="-2.0115840901"><ele>210.19</ele><time>2014-07-16T09:22:45Z</time></trkpt><trkpt lat="51.8508670852" lon="-2.0118522272"><ele>212.11</ele><time>2014-07-16T09:23:02Z</time></trkpt><trkpt lat="51.8508546799" lon="-2.0119844936"><ele>207.78</ele><time>2014-07-16T09:23:10Z</time></trkpt><trkpt lat="51.8508507404" lon="-2.0120012574"><ele>212.11</ele><time>2014-07-16T09:23:11Z</time></trkpt><trkpt lat="51.8508330546" lon="-2.0121172629"><ele>211.63</ele><time>2014-07-16T09:23:24Z</time></trkpt><trkpt lat="51.8507845234" lon="-2.0123843942"><ele>213.55</ele><time>2014-07-16T09:23:40Z</time></trkpt><trkpt lat="51.8507502414" lon="-2.0126134716"><ele>214.03</ele><time>2014-07-16T09:23:56Z</time></trkpt><trkpt lat="51.8506894726" lon="-2.0128653478"><ele>215.47</ele><time>2014-07-16T09:24:14Z</time></trkpt><trkpt lat="51.8506368343" lon="-2.0131059084"><ele>216.91</ele><time>2014-07-16T09:24:30Z</time></trkpt><trkpt lat="51.8506210763" lon="-2.0132634044"><ele>218.84</ele><time>2014-07-16T09:24:47Z</time></trkpt><trkpt lat="51.8506100960" lon="-2.0134822559"><ele>218.84</ele><time>2014-07-16T09:25:03Z</time></trkpt><trkpt lat="51.8505515903" lon="-2.0137166139"><ele>220.28</ele><time>2014-07-16T09:25:21Z</time></trkpt><trkpt lat="51.8505344074" lon="-2.0138384029"><ele>221.72</ele><time>2014-07-16T09:25:29Z</time></trkpt><trkpt lat="51.8505160511" lon="-2.0140135009"><ele>223.16</ele><time>2014-07-16T09:25:43Z</time></trkpt><trkpt lat="51.8505240139" lon="-2.0142858289"><ele>224.61</ele><time>2014-07-16T09:26:02Z</time></trkpt><trkpt lat="51.8505066633" lon="-2.0145106316"><ele>225.57</ele><time>2014-07-16T09:26:22Z</time></trkpt><trkpt lat="51.8505282886" lon="-2.0145748369"><ele>225.09</ele><time>2014-07-16T09:26:40Z</time></trkpt><trkpt lat="51.8505347427" lon="-2.0145929419"><ele>225.09</ele><time>2014-07-16T09:27:09Z</time></trkpt><trkpt lat="51.8505230080" lon="-2.0146817062"><ele>225.09</ele><time>2014-07-16T09:27:31Z</time></trkpt><trkpt lat="51.8505391013" lon="-2.0149748214"><ele>225.57</ele><time>2014-07-16T09:27:47Z</time></trkpt><trkpt lat="51.8504976947" lon="-2.0151783340"><ele>227.01</ele><time>2014-07-16T09:28:01Z</time></trkpt><trkpt lat="51.8504582997" lon="-2.0153456368"><ele>227.49</ele><time>2014-07-16T09:28:14Z</time></trkpt><trkpt lat="51.8504236825" lon="-2.0155091677"><ele>227.97</ele><time>2014-07-16T09:28:27Z</time></trkpt><trkpt lat="51.8503629975" lon="-2.0156585332"><ele>228.93</ele><time>2014-07-16T09:28:42Z</time></trkpt><trkpt lat="51.8503645901" lon="-2.0156809967"><ele>228.93</ele><time>2014-07-16T09:28:57Z</time></trkpt><trkpt lat="51.8503445573" lon="-2.0157395024"><ele>229.89</ele><time>2014-07-16T09:29:02Z</time></trkpt><trkpt lat="51.8502758257" lon="-2.0158984233"><ele>231.33</ele><time>2014-07-16T09:29:14Z</time></trkpt><trkpt lat="51.8502388615" lon="-2.0160646364"><ele>232.78</ele><time>2014-07-16T09:29:28Z</time></trkpt><trkpt lat="51.8502049148" lon="-2.0162005071"><ele>233.26</ele><time>2014-07-16T09:29:40Z</time></trkpt><trkpt lat="51.8501719739" lon="-2.0164062828"><ele>234.70</ele><time>2014-07-16T09:29:53Z</time></trkpt><trkpt lat="51.8501309026" lon="-2.0165841468"><ele>236.14</ele><time>2014-07-16T09:30:06Z</time></trkpt><trkpt lat="51.8501112051" lon="-2.0167672914"><ele>235.66</ele><time>2014-07-16T09:30:20Z</time></trkpt><trkpt lat="51.8500901666" lon="-2.0169171598"><ele>237.58</ele><time>2014-07-16T09:30:32Z</time></trkpt><trkpt lat="51.8500435632" lon="-2.0171338320"><ele>237.58</ele><time>2014-07-16T09:30:45Z</time></trkpt><trkpt lat="51.8500501011" lon="-2.0172974467"><ele>239.51</ele><time>2014-07-16T09:30:56Z</time></trkpt><trkpt lat="51.8500328343" lon="-2.0174810942"><ele>239.99</ele><time>2014-07-16T09:31:09Z</time></trkpt><trkpt lat="51.8500048388" lon="-2.0177363232"><ele>240.47</ele><time>2014-07-16T09:31:23Z</time></trkpt><trkpt lat="51.8499619234" lon="-2.0179312024"><ele>241.43</ele><time>2014-07-16T09:31:35Z</time></trkpt><trkpt lat="51.8499467522" lon="-2.0180964936"><ele>241.91</ele><time>2014-07-16T09:31:47Z</time></trkpt><trkpt lat="51.8499453273" lon="-2.0181744453"><ele>240.95</ele><time>2014-07-16T09:31:51Z</time></trkpt><trkpt lat="51.8499441538" lon="-2.0182439312"><ele>241.91</ele><time>2014-07-16T09:31:56Z</time></trkpt><trkpt lat="51.8499301560" lon="-2.0184235554"><ele>241.91</ele><time>2014-07-16T09:32:08Z</time></trkpt><trkpt lat="51.8499117158" lon="-2.0185982343"><ele>242.39</ele><time>2014-07-16T09:32:20Z</time></trkpt><trkpt lat="51.8498920184" lon="-2.0187908504"><ele>242.87</ele><time>2014-07-16T09:32:32Z</time></trkpt><trkpt lat="51.8498524558" lon="-2.0190019906"><ele>242.87</ele><time>2014-07-16T09:32:44Z</time></trkpt><trkpt lat="51.8498113006" lon="-2.0192086045"><ele>243.83</ele><time>2014-07-16T09:32:57Z</time></trkpt><trkpt lat="51.8497886695" lon="-2.0193679444"><ele>243.83</ele><time>2014-07-16T09:33:07Z</time></trkpt><trkpt lat="51.8497837242" lon="-2.0194339938"><ele>243.83</ele><time>2014-07-16T09:33:12Z</time></trkpt><trkpt lat="51.8497491907" lon="-2.0196007099"><ele>245.27</ele><time>2014-07-16T09:33:23Z</time></trkpt><trkpt lat="51.8497473467" lon="-2.0196497440"><ele>244.79</ele><time>2014-07-16T09:33:26Z</time></trkpt><trkpt lat="51.8497291580" lon="-2.0197674260"><ele>244.79</ele><time>2014-07-16T09:33:32Z</time></trkpt><trkpt lat="51.8496971391" lon="-2.0199752972"><ele>245.75</ele><time>2014-07-16T09:33:45Z</time></trkpt><trkpt lat="51.8496676348" lon="-2.0201505627"><ele>246.23</ele><time>2014-07-16T09:33:57Z</time></trkpt><trkpt lat="51.8496426567" lon="-2.0203255769"><ele>246.23</ele><time>2014-07-16T09:34:09Z</time></trkpt><trkpt lat="51.8495968077" lon="-2.0205236413"><ele>247.20</ele><time>2014-07-16T09:34:23Z</time></trkpt><trkpt lat="51.8495506234" lon="-2.0207657106"><ele>247.68</ele><time>2014-07-16T09:34:38Z</time></trkpt><trkpt lat="51.8495230470" lon="-2.0209616795"><ele>249.12</ele><time>2014-07-16T09:34:50Z</time></trkpt><trkpt lat="51.8495160900" lon="-2.0209848136"><ele>248.16</ele><time>2014-07-16T09:34:52Z</time></trkpt><trkpt lat="51.8494790420" lon="-2.0212087780"><ele>249.12</ele><time>2014-07-16T09:35:05Z</time></trkpt><trkpt lat="51.8494665530" lon="-2.0213989634"><ele>250.08</ele><time>2014-07-16T09:35:19Z</time></trkpt><trkpt lat="51.8494303431" lon="-2.0215454791"><ele>251.04</ele><time>2014-07-16T09:35:31Z</time></trkpt><trkpt lat="51.8494049460" lon="-2.0216743927"><ele>252.00</ele><time>2014-07-16T09:35:42Z</time></trkpt><trkpt lat="51.8493229710" lon="-2.0218964294"><ele>252.96</ele><time>2014-07-16T09:35:55Z</time></trkpt><trkpt lat="51.8492646329" lon="-2.0220839325"><ele>253.44</ele><time>2014-07-16T09:36:09Z</time></trkpt><trkpt lat="51.8492109049" lon="-2.0222633891"><ele>253.44</ele><time>2014-07-16T09:36:21Z</time></trkpt><trkpt lat="51.8491860107" lon="-2.0223308634"><ele>253.44</ele><time>2014-07-16T09:36:26Z</time></trkpt><trkpt lat="51.8491362222" lon="-2.0224625431"><ele>254.41</ele><time>2014-07-16T09:36:36Z</time></trkpt><trkpt lat="51.8491010182" lon="-2.0225775428"><ele>255.37</ele><time>2014-07-16T09:36:49Z</time></trkpt><trkpt lat="51.8490515649" lon="-2.0227471087"><ele>256.33</ele><time>2014-07-16T09:37:02Z</time></trkpt><trkpt lat="51.8489962444" lon="-2.0229562372"><ele>258.25</ele><time>2014-07-16T09:37:16Z</time></trkpt><trkpt lat="51.8489547540" lon="-2.0231344365"><ele>257.77</ele><time>2014-07-16T09:37:27Z</time></trkpt><trkpt lat="51.8489218131" lon="-2.0232828800"><ele>259.21</ele><time>2014-07-16T09:37:39Z</time></trkpt><trkpt lat="51.8489186279" lon="-2.0233951136"><ele>260.17</ele><time>2014-07-16T09:37:51Z</time></trkpt><trkpt lat="51.8489252497" lon="-2.0235695411"><ele>261.62</ele><time>2014-07-16T09:38:05Z</time></trkpt><trkpt lat="51.8489037920" lon="-2.0237627439"><ele>262.10</ele><time>2014-07-16T09:38:16Z</time></trkpt><trkpt lat="51.8488941528" lon="-2.0238039829"><ele>262.10</ele><time>2014-07-16T09:38:18Z</time></trkpt><trkpt lat="51.8488553446" lon="-2.0240562782"><ele>262.58</ele><time>2014-07-16T09:38:30Z</time></trkpt><trkpt lat="51.8488478847" lon="-2.0240962598"><ele>262.58</ele><time>2014-07-16T09:38:32Z</time></trkpt><trkpt lat="51.8488305341" lon="-2.0241655782"><ele>262.58</ele><time>2014-07-16T09:38:36Z</time></trkpt><trkpt lat="51.8488112558" lon="-2.0243173745"><ele>263.06</ele><time>2014-07-16T09:38:45Z</time></trkpt><trkpt lat="51.8487975094" lon="-2.0243840106"><ele>263.06</ele><time>2014-07-16T09:38:49Z</time></trkpt><trkpt lat="51.8487709388" lon="-2.0244849287"><ele>263.54</ele><time>2014-07-16T09:38:54Z</time></trkpt><trkpt lat="51.8487583660" lon="-2.0245596115"><ele>263.54</ele><time>2014-07-16T09:38:58Z</time></trkpt><trkpt lat="51.8487462960" lon="-2.0246389881"><ele>264.02</ele><time>2014-07-16T09:39:02Z</time></trkpt><trkpt lat="51.8487140257" lon="-2.0248476975"><ele>264.02</ele><time>2014-07-16T09:39:14Z</time></trkpt><trkpt lat="51.8487061467" lon="-2.0250207838"><ele>264.98</ele><time>2014-07-16T09:39:26Z</time></trkpt><trkpt lat="51.8486846052" lon="-2.0250247233"><ele>264.98</ele><time>2014-07-16T09:39:41Z</time></trkpt><trkpt lat="51.8486644048" lon="-2.0251252223"><ele>264.50</ele><time>2014-07-16T09:39:54Z</time></trkpt><trkpt lat="51.8486259319" lon="-2.0252154954"><ele>264.50</ele><time>2014-07-16T09:40:07Z</time></trkpt><trkpt lat="51.8486207351" lon="-2.0252226200"><ele>264.02</ele><time>2014-07-16T09:40:15Z</time></trkpt><trkpt lat="51.8485446274" lon="-2.0254782680"><ele>263.54</ele><time>2014-07-16T09:40:29Z</time></trkpt><trkpt lat="51.8484443799" lon="-2.0257037412"><ele>263.06</ele><time>2014-07-16T09:40:46Z</time></trkpt><trkpt lat="51.8484018836" lon="-2.0258614048"><ele>263.06</ele><time>2014-07-16T09:40:59Z</time></trkpt><trkpt lat="51.8483961001" lon="-2.0259831101"><ele>262.10</ele><time>2014-07-16T09:41:14Z</time></trkpt><trkpt lat="51.8484126963" lon="-2.0260403585"><ele>263.06</ele><time>2014-07-16T09:41:31Z</time></trkpt><trkpt lat="51.8484241795" lon="-2.0260823518"><ele>263.06</ele><time>2014-07-16T09:41:51Z</time></trkpt><trkpt lat="51.8484253529" lon="-2.0260889735"><ele>263.06</ele><time>2014-07-16T09:42:13Z</time></trkpt><trkpt lat="51.8484245986" lon="-2.0260946732"><ele>259.69</ele><time>2014-07-16T09:42:16Z</time></trkpt><trkpt lat="51.8484243471" lon="-2.0260959305"><ele>264.02</ele><time>2014-07-16T09:42:17Z</time></trkpt><trkpt lat="51.8484223355" lon="-2.0261055697"><ele>264.02</ele><time>2014-07-16T09:42:18Z</time></trkpt><trkpt lat="51.8484103493" lon="-2.0261654165"><ele>262.58</ele><time>2014-07-16T09:42:22Z</time></trkpt><trkpt lat="51.8483831082" lon="-2.0262559410"><ele>263.06</ele><time>2014-07-16T09:42:29Z</time></trkpt><trkpt lat="51.8483432941" lon="-2.0264343079"><ele>264.50</ele><time>2014-07-16T09:42:43Z</time></trkpt><trkpt lat="51.8483085092" lon="-2.0266415924"><ele>265.46</ele><time>2014-07-16T09:42:58Z</time></trkpt><trkpt lat="51.8482887279" lon="-2.0268249046"><ele>266.90</ele><time>2014-07-16T09:43:12Z</time></trkpt><trkpt lat="51.8482856266" lon="-2.0269966498"><ele>268.35</ele><time>2014-07-16T09:43:31Z</time></trkpt><trkpt lat="51.8482649233" lon="-2.0270837378"><ele>268.83</ele><time>2014-07-16T09:43:39Z</time></trkpt><trkpt lat="51.8481991254" lon="-2.0272619370"><ele>268.83</ele><time>2014-07-16T09:43:52Z</time></trkpt><trkpt lat="51.8480982911" lon="-2.0276061818"><ele>270.27</ele><time>2014-07-16T09:44:12Z</time></trkpt><trkpt lat="51.8480784260" lon="-2.0277022384"><ele>271.23</ele><time>2014-07-16T09:44:20Z</time></trkpt><trkpt lat="51.8480366003" lon="-2.0279057510"><ele>271.23</ele><time>2014-07-16T09:44:35Z</time></trkpt><trkpt lat="51.8479835428" lon="-2.0281202439"><ele>272.19</ele><time>2014-07-16T09:44:55Z</time></trkpt><trkpt lat="51.8479770888" lon="-2.0281801745"><ele>272.19</ele><time>2014-07-16T09:45:14Z</time></trkpt><trkpt lat="51.8479666952" lon="-2.0281881373"><ele>272.19</ele><time>2014-07-16T09:45:40Z</time></trkpt><trkpt lat="51.8479720596" lon="-2.0282064099"><ele>272.19</ele><time>2014-07-16T09:46:09Z</time></trkpt><trkpt lat="51.8479559664" lon="-2.0283261035"><ele>272.67</ele><time>2014-07-16T09:46:17Z</time></trkpt><trkpt lat="51.8479449023" lon="-2.0284303743"><ele>272.67</ele><time>2014-07-16T09:46:21Z</time></trkpt><trkpt lat="51.8478697166" lon="-2.0286861900"><ele>273.15</ele><time>2014-07-16T09:46:35Z</time></trkpt><trkpt lat="51.8478604127" lon="-2.0288270060"><ele>273.63</ele><time>2014-07-16T09:46:43Z</time></trkpt><trkpt lat="51.8477710616" lon="-2.0291447639"><ele>275.07</ele><time>2014-07-16T09:47:02Z</time></trkpt><trkpt lat="51.8477481790" lon="-2.0293116476"><ele>275.07</ele><time>2014-07-16T09:47:09Z</time></trkpt><trkpt lat="51.8477254640" lon="-2.0295765996"><ele>276.52</ele><time>2014-07-16T09:47:24Z</time></trkpt><trkpt lat="51.8477526214" lon="-2.0296338480"><ele>277.00</ele><time>2014-07-16T09:47:33Z</time></trkpt><trkpt lat="51.8477401324" lon="-2.0296152402"><ele>277.00</ele><time>2014-07-16T09:47:48Z</time></trkpt><trkpt lat="51.8477470055" lon="-2.0296248794"><ele>277.00</ele><time>2014-07-16T09:48:06Z</time></trkpt><trkpt lat="51.8477881607" lon="-2.0296921860"><ele>274.11</ele><time>2014-07-16T09:48:19Z</time></trkpt><trkpt lat="51.8477946986" lon="-2.0296978019"><ele>276.04</ele><time>2014-07-16T09:48:20Z</time></trkpt><trkpt lat="51.8478102889" lon="-2.0297066029"><ele>276.52</ele><time>2014-07-16T09:48:22Z</time></trkpt><trkpt lat="51.8479091115" lon="-2.0298043359"><ele>277.00</ele><time>2014-07-16T09:48:37Z</time></trkpt><trkpt lat="51.8479785137" lon="-2.0298789348"><ele>277.48</ele><time>2014-07-16T09:48:50Z</time></trkpt><trkpt lat="51.8480547052" lon="-2.0299556293"><ele>277.48</ele><time>2014-07-16T09:49:06Z</time></trkpt><trkpt lat="51.8481368478" lon="-2.0300324913"><ele>277.00</ele><time>2014-07-16T09:49:22Z</time></trkpt><trkpt lat="51.8482098542" lon="-2.0301206689"><ele>278.44</ele><time>2014-07-16T09:49:35Z</time></trkpt><trkpt lat="51.8482722156" lon="-2.0301907416"><ele>275.56</ele><time>2014-07-16T09:49:44Z</time></trkpt><trkpt lat="51.8483340740" lon="-2.0302436315"><ele>277.00</ele><time>2014-07-16T09:49:57Z</time></trkpt><trkpt lat="51.8483872991" lon="-2.0302839484"><ele>277.00</ele><time>2014-07-16T09:50:08Z</time></trkpt><trkpt lat="51.8484185636" lon="-2.0303103514"><ele>277.48</ele><time>2014-07-16T09:50:20Z</time></trkpt><trkpt lat="51.8484774046" lon="-2.0303659234"><ele>277.00</ele><time>2014-07-16T09:50:35Z</time></trkpt><trkpt lat="51.8484895583" lon="-2.0303773228"><ele>276.04</ele><time>2014-07-16T09:50:37Z</time></trkpt><trkpt lat="51.8485140335" lon="-2.0304029714"><ele>275.56</ele><time>2014-07-16T09:50:41Z</time></trkpt><trkpt lat="51.8485268578" lon="-2.0304120239"><ele>277.00</ele><time>2014-07-16T09:50:43Z</time></trkpt><trkpt lat="51.8485667557" lon="-2.0304518379"><ele>277.48</ele><time>2014-07-16T09:50:49Z</time></trkpt><trkpt lat="51.8486250937" lon="-2.0304989442"><ele>277.00</ele><time>2014-07-16T09:50:56Z</time></trkpt><trkpt lat="51.8486538436" lon="-2.0305136964"><ele>277.00</ele><time>2014-07-16T09:51:00Z</time></trkpt><trkpt lat="51.8487463798" lon="-2.0305852778"><ele>274.59</ele><time>2014-07-16T09:51:12Z</time></trkpt><trkpt lat="51.8487655744" lon="-2.0306127705"><ele>276.04</ele><time>2014-07-16T09:51:15Z</time></trkpt><trkpt lat="51.8487962522" lon="-2.0306489803"><ele>276.52</ele><time>2014-07-16T09:51:19Z</time></trkpt><trkpt lat="51.8488531653" lon="-2.0307014510"><ele>275.56</ele><time>2014-07-16T09:51:26Z</time></trkpt><trkpt lat="51.8488841783" lon="-2.0307312906"><ele>275.07</ele><time>2014-07-16T09:51:30Z</time></trkpt><trkpt lat="51.8488949910" lon="-2.0307486411"><ele>276.04</ele><time>2014-07-16T09:51:32Z</time></trkpt><trkpt lat="51.8489223998" lon="-2.0307629742"><ele>274.59</ele><time>2014-07-16T09:51:35Z</time></trkpt><trkpt lat="51.8489840906" lon="-2.0308005251"><ele>275.07</ele><time>2014-07-16T09:51:42Z</time></trkpt><trkpt lat="51.8490030337" lon="-2.0308021177"><ele>274.11</ele><time>2014-07-16T09:51:44Z</time></trkpt><trkpt lat="51.8490937259" lon="-2.0308555942"><ele>276.04</ele><time>2014-07-16T09:51:55Z</time></trkpt><trkpt lat="51.8491053768" lon="-2.0308679994"><ele>274.59</ele><time>2014-07-16T09:51:57Z</time></trkpt><trkpt lat="51.8492050376" lon="-2.0309490524"><ele>274.11</ele><time>2014-07-16T09:52:12Z</time></trkpt><trkpt lat="51.8492510542" lon="-2.0309948176"><ele>274.59</ele><time>2014-07-16T09:52:24Z</time></trkpt><trkpt lat="51.8492979929" lon="-2.0310131740"><ele>274.59</ele><time>2014-07-16T09:52:38Z</time></trkpt><trkpt lat="51.8493530620" lon="-2.0310738590"><ele>274.59</ele><time>2014-07-16T09:52:54Z</time></trkpt><trkpt lat="51.8493943010" lon="-2.0310988370"><ele>275.07</ele><time>2014-07-16T09:53:08Z</time></trkpt><trkpt lat="51.8494740129" lon="-2.0312226377"><ele>274.11</ele><time>2014-07-16T09:53:20Z</time></trkpt><trkpt lat="51.8495098036" lon="-2.0312605239"><ele>275.07</ele><time>2014-07-16T09:53:25Z</time></trkpt><trkpt lat="51.8496033456" lon="-2.0313505456"><ele>274.59</ele><time>2014-07-16T09:53:39Z</time></trkpt><trkpt lat="51.8496525474" lon="-2.0313854143"><ele>274.59</ele><time>2014-07-16T09:53:46Z</time></trkpt><trkpt lat="51.8496612646" lon="-2.0313939638"><ele>273.15</ele><time>2014-07-16T09:53:48Z</time></trkpt><trkpt lat="51.8497752585" lon="-2.0314587560"><ele>274.11</ele><time>2014-07-16T09:54:01Z</time></trkpt><trkpt lat="51.8498192634" lon="-2.0314346161"><ele>271.71</ele><time>2014-07-16T09:54:15Z</time></trkpt><trkpt lat="51.8498192634" lon="-2.0314345323"><ele>275.56</ele><time>2014-07-16T09:54:17Z</time></trkpt><trkpt lat="51.8498614244" lon="-2.0315598417"><ele>274.11</ele><time>2014-07-16T09:54:31Z</time></trkpt><trkpt lat="51.8499017414" lon="-2.0316472650"><ele>274.59</ele><time>2014-07-16T09:54:45Z</time></trkpt><trkpt lat="51.8499285635" lon="-2.0316656213"><ele>274.11</ele><time>2014-07-16T09:55:00Z</time></trkpt><trkpt lat="51.8499297369" lon="-2.0316660404"><ele>276.04</ele><time>2014-07-16T09:55:17Z</time></trkpt><trkpt lat="51.8499274738" lon="-2.0316638611"><ele>274.59</ele><time>2014-07-16T09:55:39Z</time></trkpt><trkpt lat="51.8499286473" lon="-2.0316676330"><ele>274.11</ele><time>2014-07-16T09:56:01Z</time></trkpt><trkpt lat="51.8499277253" lon="-2.0316698123"><ele>274.59</ele><time>2014-07-16T09:56:28Z</time></trkpt><trkpt lat="51.8499298207" lon="-2.0316690579"><ele>274.59</ele><time>2014-07-16T09:56:54Z</time></trkpt><trkpt lat="51.8499363586" lon="-2.0316645317"><ele>274.59</ele><time>2014-07-16T09:57:23Z</time></trkpt><trkpt lat="51.8499348499" lon="-2.0316581614"><ele>274.59</ele><time>2014-07-16T09:57:53Z</time></trkpt><trkpt lat="51.8499325868" lon="-2.0316594187"><ele>274.59</ele><time>2014-07-16T09:58:12Z</time></trkpt><trkpt lat="51.8499327544" lon="-2.0316532161"><ele>274.59</ele><time>2014-07-16T09:58:34Z</time></trkpt><trkpt lat="51.8499329221" lon="-2.0316522941"><ele>274.11</ele><time>2014-07-16T09:58:56Z</time></trkpt><trkpt lat="51.8499294855" lon="-2.0316541381"><ele>275.07</ele><time>2014-07-16T09:59:29Z</time></trkpt><trkpt lat="51.8499241211" lon="-2.0316529647"><ele>275.07</ele><time>2014-07-16T10:00:02Z</time></trkpt><trkpt lat="51.8499236181" lon="-2.0316574071"><ele>275.07</ele><time>2014-07-16T10:00:29Z</time></trkpt><trkpt lat="51.8499211036" lon="-2.0316582453"><ele>274.59</ele><time>2014-07-16T10:01:00Z</time></trkpt><trkpt lat="51.8499242887" lon="-2.0316568203"><ele>275.07</ele><time>2014-07-16T10:01:31Z</time></trkpt><trkpt lat="51.8499295693" lon="-2.0316609275"><ele>275.07</ele><time>2014-07-16T10:02:03Z</time></trkpt><trkpt lat="51.8499263003" lon="-2.0316595864"><ele>275.07</ele><time>2014-07-16T10:02:37Z</time></trkpt><trkpt lat="51.8499293178" lon="-2.0316548925"><ele>275.56</ele><time>2014-07-16T10:02:57Z</time></trkpt><trkpt lat="51.8499261327" lon="-2.0316589158"><ele>275.56</ele><time>2014-07-16T10:03:27Z</time></trkpt><trkpt lat="51.8499304913" lon="-2.0316558983"><ele>275.07</ele><time>2014-07-16T10:03:59Z</time></trkpt><trkpt lat="51.8499329221" lon="-2.0316553116"><ele>279.40</ele><time>2014-07-16T10:04:21Z</time></trkpt><trkpt lat="51.8499328382" lon="-2.0316553116"><ele>273.15</ele><time>2014-07-16T10:04:22Z</time></trkpt><trkpt lat="51.8499329221" lon="-2.0316552278"><ele>277.00</ele><time>2014-07-16T10:04:23Z</time></trkpt><trkpt lat="51.8499326706" lon="-2.0316556469"><ele>275.56</ele><time>2014-07-16T10:04:26Z</time></trkpt><trkpt lat="51.8499309942" lon="-2.0316638611"><ele>276.04</ele><time>2014-07-16T10:05:01Z</time></trkpt><trkpt lat="51.8499325868" lon="-2.0316603407"><ele>276.04</ele><time>2014-07-16T10:05:24Z</time></trkpt><trkpt lat="51.8499337602" lon="-2.0316562336"><ele>276.04</ele><time>2014-07-16T10:05:46Z</time></trkpt><trkpt lat="51.8499344308" lon="-2.0316608436"><ele>276.04</ele><time>2014-07-16T10:06:19Z</time></trkpt><trkpt lat="51.8499347661" lon="-2.0316450018"><ele>276.04</ele><time>2014-07-16T10:06:53Z</time></trkpt><trkpt lat="51.8499295693" lon="-2.0316407271"><ele>276.04</ele><time>2014-07-16T10:07:24Z</time></trkpt><trkpt lat="51.8499263003" lon="-2.0316310879"><ele>276.04</ele><time>2014-07-16T10:07:57Z</time></trkpt><trkpt lat="51.8499257974" lon="-2.0316264778"><ele>276.52</ele><time>2014-07-16T10:08:27Z</time></trkpt><trkpt lat="51.8499257136" lon="-2.0316238794"><ele>276.04</ele><time>2014-07-16T10:08:56Z</time></trkpt><trkpt lat="51.8499356043" lon="-2.0316744223"><ele>276.52</ele><time>2014-07-16T10:09:18Z</time></trkpt><trkpt lat="51.8499767594" lon="-2.0317439083"><ele>276.52</ele><time>2014-07-16T10:09:29Z</time></trkpt><trkpt lat="51.8500738218" lon="-2.0317988098"><ele>275.07</ele><time>2014-07-16T10:09:41Z</time></trkpt><trkpt lat="51.8501904141" lon="-2.0318472572"><ele>276.04</ele><time>2014-07-16T10:09:54Z</time></trkpt><trkpt lat="51.8502655998" lon="-2.0318774320"><ele>274.59</ele><time>2014-07-16T10:10:03Z</time></trkpt><trkpt lat="51.8502844591" lon="-2.0318879094"><ele>277.48</ele><time>2014-07-16T10:10:05Z</time></trkpt><trkpt lat="51.8503952678" lon="-2.0319603290"><ele>277.96</ele><time>2014-07-16T10:10:19Z</time></trkpt><trkpt lat="51.8504494987" lon="-2.0320041664"><ele>275.56</ele><time>2014-07-16T10:10:25Z</time></trkpt><trkpt lat="51.8504679389" lon="-2.0320049208"><ele>277.48</ele><time>2014-07-16T10:10:27Z</time></trkpt><trkpt lat="51.8505287915" lon="-2.0320194215"><ele>278.44</ele><time>2014-07-16T10:10:34Z</time></trkpt><trkpt lat="51.8505632412" lon="-2.0320130512"><ele>275.07</ele><time>2014-07-16T10:10:38Z</time></trkpt><trkpt lat="51.8505971879" lon="-2.0320033282"><ele>278.44</ele><time>2014-07-16T10:10:42Z</time></trkpt><trkpt lat="51.8507068232" lon="-2.0319604129"><ele>277.96</ele><time>2014-07-16T10:10:54Z</time></trkpt><trkpt lat="51.8507876247" lon="-2.0318699721"><ele>279.40</ele><time>2014-07-16T10:11:06Z</time></trkpt><trkpt lat="51.8508500699" lon="-2.0317760110"><ele>277.96</ele><time>2014-07-16T10:11:17Z</time></trkpt><trkpt lat="51.8508628942" lon="-2.0317608397"><ele>279.88</ele><time>2014-07-16T10:11:19Z</time></trkpt><trkpt lat="51.8508770596" lon="-2.0317423996"><ele>280.36</ele><time>2014-07-16T10:11:21Z</time></trkpt><trkpt lat="51.8509473000" lon="-2.0316841453"><ele>282.77</ele><time>2014-07-16T10:11:30Z</time></trkpt><trkpt lat="51.8510273471" lon="-2.0316444151"><ele>283.25</ele><time>2014-07-16T10:11:44Z</time></trkpt><trkpt lat="51.8510964978" lon="-2.0316230413"><ele>284.69</ele><time>2014-07-16T10:11:51Z</time></trkpt><trkpt lat="51.8511143513" lon="-2.0316145755"><ele>281.80</ele><time>2014-07-16T10:11:53Z</time></trkpt><trkpt lat="51.8511309475" lon="-2.0316083729"><ele>284.21</ele><time>2014-07-16T10:11:55Z</time></trkpt><trkpt lat="51.8512339611" lon="-2.0315802097"><ele>285.17</ele><time>2014-07-16T10:12:09Z</time></trkpt><trkpt lat="51.8513210490" lon="-2.0316126477"><ele>285.17</ele><time>2014-07-16T10:12:24Z</time></trkpt><trkpt lat="51.8513637129" lon="-2.0316319261"><ele>286.13</ele><time>2014-07-16T10:12:28Z</time></trkpt><trkpt lat="51.8514618650" lon="-2.0316802897"><ele>287.57</ele><time>2014-07-16T10:12:41Z</time></trkpt><trkpt lat="51.8514847476" lon="-2.0317044295"><ele>285.17</ele><time>2014-07-16T10:12:47Z</time></trkpt><trkpt lat="51.8515216280" lon="-2.0317086205"><ele>288.05</ele><time>2014-07-16T10:12:50Z</time></trkpt><trkpt lat="51.8516150024" lon="-2.0317719039"><ele>286.61</ele><time>2014-07-16T10:13:03Z</time></trkpt><trkpt lat="51.8516792078" lon="-2.0318031684"><ele>288.53</ele><time>2014-07-16T10:13:11Z</time></trkpt><trkpt lat="51.8517280743" lon="-2.0318564773"><ele>288.05</ele><time>2014-07-16T10:13:21Z</time></trkpt><trkpt lat="51.8517684750" lon="-2.0318856463"><ele>287.09</ele><time>2014-07-16T10:13:26Z</time></trkpt><trkpt lat="51.8518309202" lon="-2.0319141448"><ele>288.05</ele><time>2014-07-16T10:13:32Z</time></trkpt><trkpt lat="51.8519200198" lon="-2.0319882408"><ele>291.42</ele><time>2014-07-16T10:13:45Z</time></trkpt><trkpt lat="51.8519203551" lon="-2.0319884922"><ele>287.57</ele><time>2014-07-16T10:13:46Z</time></trkpt><trkpt lat="51.8519465905" lon="-2.0320025738"><ele>290.46</ele><time>2014-07-16T10:13:49Z</time></trkpt><trkpt lat="51.8519721553" lon="-2.0320397057"><ele>287.09</ele><time>2014-07-16T10:13:53Z</time></trkpt><trkpt lat="51.8519822136" lon="-2.0320510212"><ele>289.97</ele><time>2014-07-16T10:13:55Z</time></trkpt><trkpt lat="51.8519859016" lon="-2.0320590679"><ele>287.09</ele><time>2014-07-16T10:13:56Z</time></trkpt><trkpt lat="51.8519908469" lon="-2.0320720598"><ele>290.46</ele><time>2014-07-16T10:13:58Z</time></trkpt><trkpt lat="51.8519918527" lon="-2.0320741553"><ele>287.57</ele><time>2014-07-16T10:13:59Z</time></trkpt><trkpt lat="51.8519995641" lon="-2.0320841298"><ele>288.05</ele><time>2014-07-16T10:14:00Z</time></trkpt><trkpt lat="51.8520929385" lon="-2.0321971178"><ele>289.49</ele><time>2014-07-16T10:14:13Z</time></trkpt><trkpt lat="51.8521821219" lon="-2.0323233493"><ele>290.46</ele><time>2014-07-16T10:14:28Z</time></trkpt><trkpt lat="51.8522001430" lon="-2.0323489141"><ele>289.49</ele><time>2014-07-16T10:14:30Z</time></trkpt><trkpt lat="51.8522632588" lon="-2.0324471500"><ele>289.01</ele><time>2014-07-16T10:14:40Z</time></trkpt><trkpt lat="51.8523260392" lon="-2.0324748103"><ele>290.46</ele><time>2014-07-16T10:14:55Z</time></trkpt><trkpt lat="51.8523516878" lon="-2.0324617345"><ele>290.46</ele><time>2014-07-16T10:15:09Z</time></trkpt><trkpt lat="51.8523573037" lon="-2.0324573759"><ele>292.86</ele><time>2014-07-16T10:15:27Z</time></trkpt><trkpt lat="51.8523575552" lon="-2.0324579626"><ele>289.49</ele><time>2014-07-16T10:15:28Z</time></trkpt><trkpt lat="51.8523547892" lon="-2.0324517600"><ele>289.97</ele><time>2014-07-16T10:15:46Z</time></trkpt><trkpt lat="51.8523579743" lon="-2.0324422885"><ele>290.46</ele><time>2014-07-16T10:16:12Z</time></trkpt><trkpt lat="51.8523583096" lon="-2.0324404445"><ele>287.09</ele><time>2014-07-16T10:16:22Z</time></trkpt><trkpt lat="51.8523590639" lon="-2.0324400254"><ele>290.94</ele><time>2014-07-16T10:16:23Z</time></trkpt><trkpt lat="51.8523938488" lon="-2.0324677695"><ele>290.46</ele><time>2014-07-16T10:16:43Z</time></trkpt><trkpt lat="51.8524240237" lon="-2.0324888080"><ele>287.57</ele><time>2014-07-16T10:16:46Z</time></trkpt><trkpt lat="51.8524403684" lon="-2.0325031411"><ele>291.90</ele><time>2014-07-16T10:16:48Z</time></trkpt><trkpt lat="51.8524725549" lon="-2.0325478166"><ele>288.53</ele><time>2014-07-16T10:16:54Z</time></trkpt><trkpt lat="51.8524925038" lon="-2.0325709507"><ele>291.90</ele><time>2014-07-16T10:16:57Z</time></trkpt><trkpt lat="51.8525005504" lon="-2.0325749740"><ele>291.90</ele><time>2014-07-16T10:16:58Z</time></trkpt><trkpt lat="51.8525103573" lon="-2.0325786620"><ele>288.53</ele><time>2014-07-16T10:16:59Z</time></trkpt><trkpt lat="51.8525205832" lon="-2.0325859543"><ele>290.94</ele><time>2014-07-16T10:17:00Z</time></trkpt><trkpt lat="51.8525738083" lon="-2.0326422807"><ele>289.49</ele><time>2014-07-16T10:17:10Z</time></trkpt><trkpt lat="51.8525925837" lon="-2.0326557755"><ele>291.90</ele><time>2014-07-16T10:17:14Z</time></trkpt><trkpt lat="51.8526229262" lon="-2.0326956734"><ele>288.53</ele><time>2014-07-16T10:17:19Z</time></trkpt><trkpt lat="51.8526385166" lon="-2.0327125210"><ele>292.38</ele><time>2014-07-16T10:17:21Z</time></trkpt><trkpt lat="51.8526634108" lon="-2.0327193942"><ele>291.90</ele><time>2014-07-16T10:17:25Z</time></trkpt><trkpt lat="51.8526653387" lon="-2.0327223279"><ele>288.53</ele><time>2014-07-16T10:17:26Z</time></trkpt><trkpt lat="51.8526740558" lon="-2.0327374153"><ele>292.38</ele><time>2014-07-16T10:17:27Z</time></trkpt><trkpt lat="51.8527127802" lon="-2.0327608008"><ele>289.49</ele><time>2014-07-16T10:17:32Z</time></trkpt><trkpt lat="51.8527590483" lon="-2.0327762235"><ele>293.34</ele><time>2014-07-16T10:17:37Z</time></trkpt><trkpt lat="51.8527760636" lon="-2.0327981841"><ele>289.97</ele><time>2014-07-16T10:17:39Z</time></trkpt><trkpt lat="51.8528637383" lon="-2.0328849368"><ele>291.90</ele><time>2014-07-16T10:17:56Z</time></trkpt><trkpt lat="51.8529139459" lon="-2.0329162851"><ele>288.53</ele><time>2014-07-16T10:18:02Z</time></trkpt><trkpt lat="51.8529195618" lon="-2.0329175424"><ele>292.38</ele><time>2014-07-16T10:18:04Z</time></trkpt><trkpt lat="51.8529225793" lon="-2.0329190511"><ele>289.49</ele><time>2014-07-16T10:18:05Z</time></trkpt><trkpt lat="51.8529471382" lon="-2.0329331327"><ele>292.86</ele><time>2014-07-16T10:18:07Z</time></trkpt><trkpt lat="51.8530198932" lon="-2.0329604577"><ele>286.61</ele><time>2014-07-16T10:18:18Z</time></trkpt><trkpt lat="51.8530204799" lon="-2.0329605415"><ele>292.38</ele><time>2014-07-16T10:18:19Z</time></trkpt><trkpt lat="51.8530245032" lon="-2.0329674147"><ele>289.49</ele><time>2014-07-16T10:18:22Z</time></trkpt><trkpt lat="51.8530512415" lon="-2.0329889562"><ele>292.38</ele><time>2014-07-16T10:18:25Z</time></trkpt><trkpt lat="51.8530594558" lon="-2.0329971705"><ele>289.01</ele><time>2014-07-16T10:18:27Z</time></trkpt><trkpt lat="51.8530870322" lon="-2.0330172032"><ele>288.53</ele><time>2014-07-16T10:18:34Z</time></trkpt><trkpt lat="51.8531158660" lon="-2.0330433547"><ele>292.38</ele><time>2014-07-16T10:18:37Z</time></trkpt><trkpt lat="51.8531349767" lon="-2.0330621302"><ele>288.53</ele><time>2014-07-16T10:18:38Z</time></trkpt><trkpt lat="51.8531430233" lon="-2.0330719370"><ele>289.97</ele><time>2014-07-16T10:18:39Z</time></trkpt><trkpt lat="51.8531586137" lon="-2.0330819115"><ele>293.34</ele><time>2014-07-16T10:18:40Z</time></trkpt><trkpt lat="51.8531742878" lon="-2.0331102423"><ele>289.49</ele><time>2014-07-16T10:18:42Z</time></trkpt><trkpt lat="51.8531973381" lon="-2.0331425127"><ele>292.38</ele><time>2014-07-16T10:18:44Z</time></trkpt><trkpt lat="51.8531990983" lon="-2.0331433509"><ele>288.53</ele><time>2014-07-16T10:18:45Z</time></trkpt><trkpt lat="51.8532041274" lon="-2.0331493858"><ele>292.38</ele><time>2014-07-16T10:18:48Z</time></trkpt><trkpt lat="51.8532120902" lon="-2.0331579354"><ele>291.42</ele><time>2014-07-16T10:18:49Z</time></trkpt><trkpt lat="51.8532226514" lon="-2.0331669878"><ele>288.05</ele><time>2014-07-16T10:18:50Z</time></trkpt><trkpt lat="51.8532628845" lon="-2.0331780519"><ele>292.38</ele><time>2014-07-16T10:18:52Z</time></trkpt><trkpt lat="51.8532719370" lon="-2.0331839193"><ele>288.53</ele><time>2014-07-16T10:18:53Z</time></trkpt><trkpt lat="51.8532881979" lon="-2.0331935585"><ele>293.34</ele><time>2014-07-16T10:18:55Z</time></trkpt><trkpt lat="51.8532934785" lon="-2.0332002640"><ele>287.09</ele><time>2014-07-16T10:18:56Z</time></trkpt><trkpt lat="51.8532994296" lon="-2.0332064666"><ele>289.97</ele><time>2014-07-16T10:18:57Z</time></trkpt><trkpt lat="51.8533403333" lon="-2.0332695823"><ele>284.69</ele><time>2014-07-16T10:19:07Z</time></trkpt><trkpt lat="51.8533481285" lon="-2.0332781319"><ele>291.90</ele><time>2014-07-16T10:19:08Z</time></trkpt><trkpt lat="51.8533655629" lon="-2.0332989190"><ele>288.53</ele><time>2014-07-16T10:19:11Z</time></trkpt><trkpt lat="51.8533863500" lon="-2.0333246514"><ele>292.38</ele><time>2014-07-16T10:19:13Z</time></trkpt><trkpt lat="51.8533897027" lon="-2.0333294291"><ele>287.09</ele><time>2014-07-16T10:19:14Z</time></trkpt><trkpt lat="51.8534057960" lon="-2.0333466958"><ele>291.90</ele><time>2014-07-16T10:19:16Z</time></trkpt><trkpt lat="51.8534225598" lon="-2.0333598554"><ele>287.57</ele><time>2014-07-16T10:19:18Z</time></trkpt><trkpt lat="51.8534262478" lon="-2.0333615318"><ele>289.49</ele><time>2014-07-16T10:19:19Z</time></trkpt><trkpt lat="51.8534491304" lon="-2.0333803911"><ele>284.21</ele><time>2014-07-16T10:19:26Z</time></trkpt><trkpt lat="51.8534515612" lon="-2.0333808102"><ele>291.42</ele><time>2014-07-16T10:19:27Z</time></trkpt><trkpt lat="51.8534664810" lon="-2.0333905332"><ele>287.57</ele><time>2014-07-16T10:19:29Z</time></trkpt><trkpt lat="51.8534714263" lon="-2.0333933830"><ele>290.94</ele><time>2014-07-16T10:19:30Z</time></trkpt><trkpt lat="51.8534922972" lon="-2.0334041957"><ele>287.57</ele><time>2014-07-16T10:19:32Z</time></trkpt><trkpt lat="51.8535256572" lon="-2.0334302634"><ele>291.42</ele><time>2014-07-16T10:19:34Z</time></trkpt><trkpt lat="51.8535371404" lon="-2.0334433392"><ele>287.09</ele><time>2014-07-16T10:19:35Z</time></trkpt><trkpt lat="51.8535404932" lon="-2.0334467757"><ele>288.05</ele><time>2014-07-16T10:19:36Z</time></trkpt><trkpt lat="51.8535442650" lon="-2.0334499609"><ele>291.42</ele><time>2014-07-16T10:19:38Z</time></trkpt><trkpt lat="51.8535569217" lon="-2.0334562473"><ele>287.09</ele><time>2014-07-16T10:19:40Z</time></trkpt><trkpt lat="51.8535634596" lon="-2.0334563311"><ele>289.97</ele><time>2014-07-16T10:19:41Z</time></trkpt><trkpt lat="51.8535898626" lon="-2.0334584266"><ele>288.53</ele><time>2014-07-16T10:19:44Z</time></trkpt><trkpt lat="51.8535974063" lon="-2.0334609412"><ele>291.90</ele><time>2014-07-16T10:19:45Z</time></trkpt><trkpt lat="51.8536072969" lon="-2.0334642101"><ele>289.49</ele><time>2014-07-16T10:19:46Z</time></trkpt><trkpt lat="51.8536465243" lon="-2.0334760286"><ele>289.97</ele><time>2014-07-16T10:19:51Z</time></trkpt><trkpt lat="51.8536517210" lon="-2.0334796328"><ele>286.61</ele><time>2014-07-16T10:19:53Z</time></trkpt><trkpt lat="51.8536549900" lon="-2.0334807225"><ele>290.94</ele><time>2014-07-16T10:19:54Z</time></trkpt><trkpt lat="51.8536593486" lon="-2.0334822312"><ele>289.49</ele><time>2014-07-16T10:19:55Z</time></trkpt><trkpt lat="51.8536744360" lon="-2.0334815606"><ele>287.57</ele><time>2014-07-16T10:19:57Z</time></trkpt><trkpt lat="51.8536902778" lon="-2.0334838238"><ele>288.53</ele><time>2014-07-16T10:19:59Z</time></trkpt><trkpt lat="51.8537067063" lon="-2.0334870927"><ele>285.17</ele><time>2014-07-16T10:20:02Z</time></trkpt><trkpt lat="51.8537112325" lon="-2.0334890205"><ele>289.49</ele><time>2014-07-16T10:20:03Z</time></trkpt><trkpt lat="51.8537590932" lon="-2.0335001685"><ele>287.09</ele><time>2014-07-16T10:20:11Z</time></trkpt><trkpt lat="51.8537960574" lon="-2.0335178543"><ele>289.01</ele><time>2014-07-16T10:20:15Z</time></trkpt><trkpt lat="51.8538021762" lon="-2.0335194468"><ele>285.17</ele><time>2014-07-16T10:20:16Z</time></trkpt><trkpt lat="51.8538050260" lon="-2.0335209556"><ele>285.65</ele><time>2014-07-16T10:20:17Z</time></trkpt><trkpt lat="51.8538126536" lon="-2.0335253142"><ele>290.46</ele><time>2014-07-16T10:20:19Z</time></trkpt><trkpt lat="51.8538173474" lon="-2.0335274097"><ele>286.61</ele><time>2014-07-16T10:20:20Z</time></trkpt><trkpt lat="51.8538460135" lon="-2.0335315168"><ele>289.97</ele><time>2014-07-16T10:20:23Z</time></trkpt><trkpt lat="51.8538918626" lon="-2.0335395634"><ele>284.69</ele><time>2014-07-16T10:20:26Z</time></trkpt><trkpt lat="51.8539105542" lon="-2.0335430000"><ele>289.49</ele><time>2014-07-16T10:20:28Z</time></trkpt><trkpt lat="51.8539192714" lon="-2.0335435867"><ele>287.57</ele><time>2014-07-16T10:20:29Z</time></trkpt><trkpt lat="51.8539295811" lon="-2.0335461851"><ele>286.13</ele><time>2014-07-16T10:20:31Z</time></trkpt><trkpt lat="51.8539360352" lon="-2.0335482806"><ele>288.53</ele><time>2014-07-16T10:20:33Z</time></trkpt><trkpt lat="51.8539389689" lon="-2.0335487835"><ele>283.73</ele><time>2014-07-16T10:20:34Z</time></trkpt><trkpt lat="51.8539435789" lon="-2.0335502084"><ele>287.57</ele><time>2014-07-16T10:20:35Z</time></trkpt><trkpt lat="51.8539811298" lon="-2.0335565787"><ele>283.25</ele><time>2014-07-16T10:20:39Z</time></trkpt><trkpt lat="51.8539953791" lon="-2.0335639548"><ele>287.09</ele><time>2014-07-16T10:20:40Z</time></trkpt><trkpt lat="51.8540110532" lon="-2.0335745160"><ele>284.21</ele><time>2014-07-16T10:20:43Z</time></trkpt><trkpt lat="51.8540372886" lon="-2.0335839875"><ele>288.53</ele><time>2014-07-16T10:20:45Z</time></trkpt><trkpt lat="51.8540397193" lon="-2.0335834846"><ele>285.17</ele><time>2014-07-16T10:20:46Z</time></trkpt><trkpt lat="51.8540510349" lon="-2.0335853286"><ele>282.28</ele><time>2014-07-16T10:20:47Z</time></trkpt><trkpt lat="51.8541002367" lon="-2.0336026791"><ele>287.09</ele><time>2014-07-16T10:20:50Z</time></trkpt><trkpt lat="51.8541117199" lon="-2.0336051099"><ele>287.57</ele><time>2014-07-16T10:20:51Z</time></trkpt><trkpt lat="51.8541247118" lon="-2.0336104743"><ele>282.28</ele><time>2014-07-16T10:20:52Z</time></trkpt><trkpt lat="51.8541392125" lon="-2.0336173475"><ele>283.73</ele><time>2014-07-16T10:20:53Z</time></trkpt><trkpt lat="51.8541702256" lon="-2.0336330216"><ele>288.53</ele><time>2014-07-16T10:20:55Z</time></trkpt><trkpt lat="51.8541766796" lon="-2.0336352848"><ele>283.25</ele><time>2014-07-16T10:20:56Z</time></trkpt><trkpt lat="51.8541841395" lon="-2.0336352009"><ele>284.69</ele><time>2014-07-16T10:20:57Z</time></trkpt><trkpt lat="51.8542024959" lon="-2.0336362906"><ele>287.57</ele><time>2014-07-16T10:20:59Z</time></trkpt><trkpt lat="51.8542216066" lon="-2.0336322673"><ele>282.77</ele><time>2014-07-16T10:21:00Z</time></trkpt><trkpt lat="51.8542420585" lon="-2.0336287469"><ele>283.73</ele><time>2014-07-16T10:21:01Z</time></trkpt><trkpt lat="51.8542905897" lon="-2.0336376317"><ele>287.57</ele><time>2014-07-16T10:21:04Z</time></trkpt><trkpt lat="51.8543007318" lon="-2.0336418226"><ele>283.73</ele><time>2014-07-16T10:21:05Z</time></trkpt><trkpt lat="51.8543337565" lon="-2.0336487796"><ele>287.57</ele><time>2014-07-16T10:21:08Z</time></trkpt><trkpt lat="51.8543423060" lon="-2.0336503722"><ele>284.69</ele><time>2014-07-16T10:21:09Z</time></trkpt><trkpt lat="51.8544469960" lon="-2.0336865820"><ele>283.73</ele><time>2014-07-16T10:21:16Z</time></trkpt><trkpt lat="51.8545183260" lon="-2.0336820558"><ele>286.13</ele><time>2014-07-16T10:21:22Z</time></trkpt><trkpt lat="51.8545564637" lon="-2.0336864144"><ele>280.36</ele><time>2014-07-16T10:21:25Z</time></trkpt><trkpt lat="51.8545579724" lon="-2.0336871687"><ele>283.73</ele><time>2014-07-16T10:21:26Z</time></trkpt><trkpt lat="51.8545668572" lon="-2.0336871687"><ele>283.73</ele><time>2014-07-16T10:21:30Z</time></trkpt><trkpt lat="51.8545713834" lon="-2.0336864144"><ele>279.88</ele><time>2014-07-16T10:21:33Z</time></trkpt><trkpt lat="51.8545738142" lon="-2.0336863305"><ele>284.69</ele><time>2014-07-16T10:21:34Z</time></trkpt><trkpt lat="51.8545782566" lon="-2.0336861629"><ele>280.84</ele><time>2014-07-16T10:21:36Z</time></trkpt><trkpt lat="51.8545805197" lon="-2.0336854924"><ele>281.32</ele><time>2014-07-16T10:21:37Z</time></trkpt><trkpt lat="51.8545871414" lon="-2.0336828101"><ele>286.61</ele><time>2014-07-16T10:21:39Z</time></trkpt><trkpt lat="51.8545894884" lon="-2.0336823910"><ele>282.28</ele><time>2014-07-16T10:21:40Z</time></trkpt><trkpt lat="51.8546287995" lon="-2.0336763561"><ele>284.69</ele><time>2014-07-16T10:21:47Z</time></trkpt><trkpt lat="51.8546618242" lon="-2.0336756017"><ele>280.84</ele><time>2014-07-16T10:21:49Z</time></trkpt><trkpt lat="51.8546657637" lon="-2.0336759370"><ele>281.32</ele><time>2014-07-16T10:21:50Z</time></trkpt><trkpt lat="51.8546840362" lon="-2.0336782001"><ele>285.17</ele><time>2014-07-16T10:21:52Z</time></trkpt><trkpt lat="51.8546873890" lon="-2.0336783677"><ele>281.80</ele><time>2014-07-16T10:21:53Z</time></trkpt><trkpt lat="51.8548041489" lon="-2.0337027591"><ele>279.88</ele><time>2014-07-16T10:22:07Z</time></trkpt><trkpt lat="51.8548432924" lon="-2.0337134041"><ele>284.69</ele><time>2014-07-16T10:22:09Z</time></trkpt><trkpt lat="51.8548595533" lon="-2.0337199420"><ele>281.32</ele><time>2014-07-16T10:22:10Z</time></trkpt><trkpt lat="51.8550093379" lon="-2.0336831454"><ele>283.25</ele><time>2014-07-16T10:22:25Z</time></trkpt><trkpt lat="51.8550231680" lon="-2.0336771104"><ele>279.40</ele><time>2014-07-16T10:22:27Z</time></trkpt><trkpt lat="51.8550301250" lon="-2.0336753502"><ele>280.84</ele><time>2014-07-16T10:22:28Z</time></trkpt><trkpt lat="51.8550396804" lon="-2.0336738415"><ele>282.28</ele><time>2014-07-16T10:22:30Z</time></trkpt><trkpt lat="51.8550463021" lon="-2.0336739253"><ele>278.92</ele><time>2014-07-16T10:22:31Z</time></trkpt><trkpt lat="51.8550714478" lon="-2.0336533058"><ele>282.28</ele><time>2014-07-16T10:22:34Z</time></trkpt><trkpt lat="51.8550965935" lon="-2.0336393081"><ele>278.92</ele><time>2014-07-16T10:22:36Z</time></trkpt><trkpt lat="51.8551239185" lon="-2.0336263161"><ele>282.28</ele><time>2014-07-16T10:22:39Z</time></trkpt><trkpt lat="51.8551376648" lon="-2.0336242206"><ele>278.44</ele><time>2014-07-16T10:22:40Z</time></trkpt><trkpt lat="51.8551934883" lon="-2.0336062834"><ele>281.32</ele><time>2014-07-16T10:22:45Z</time></trkpt><trkpt lat="51.8552023731" lon="-2.0336039364"><ele>277.96</ele><time>2014-07-16T10:22:46Z</time></trkpt><trkpt lat="51.8552089110" lon="-2.0336015895"><ele>277.96</ele><time>2014-07-16T10:22:47Z</time></trkpt><trkpt lat="51.8552356493" lon="-2.0335833170"><ele>281.80</ele><time>2014-07-16T10:22:49Z</time></trkpt><trkpt lat="51.8552529998" lon="-2.0335704088"><ele>276.52</ele><time>2014-07-16T10:22:51Z</time></trkpt><trkpt lat="51.8552555144" lon="-2.0335677266"><ele>278.92</ele><time>2014-07-16T10:22:52Z</time></trkpt><trkpt lat="51.8553241622" lon="-2.0335155074"><ele>282.28</ele><time>2014-07-16T10:22:55Z</time></trkpt><trkpt lat="51.8553461228" lon="-2.0335036051"><ele>280.36</ele><time>2014-07-16T10:22:56Z</time></trkpt><trkpt lat="51.8553646468" lon="-2.0334929600"><ele>277.00</ele><time>2014-07-16T10:22:57Z</time></trkpt><trkpt lat="51.8553856015" lon="-2.0334845781"><ele>278.44</ele><time>2014-07-16T10:22:58Z</time></trkpt><trkpt lat="51.8554495554" lon="-2.0334707480"><ele>279.88</ele><time>2014-07-16T10:23:00Z</time></trkpt><trkpt lat="51.8554855138" lon="-2.0334429201"><ele>275.56</ele><time>2014-07-16T10:23:03Z</time></trkpt><trkpt lat="51.8554926384" lon="-2.0334384777"><ele>279.40</ele><time>2014-07-16T10:23:04Z</time></trkpt><trkpt lat="51.8555094860" lon="-2.0334321074"><ele>280.84</ele><time>2014-07-16T10:23:06Z</time></trkpt><trkpt lat="51.8555181194" lon="-2.0334280841"><ele>277.00</ele><time>2014-07-16T10:23:07Z</time></trkpt><trkpt lat="51.8555251602" lon="-2.0334191155"><ele>277.00</ele><time>2014-07-16T10:23:08Z</time></trkpt><trkpt lat="51.8555394933" lon="-2.0334066264"><ele>279.88</ele><time>2014-07-16T10:23:10Z</time></trkpt><trkpt lat="51.8555452768" lon="-2.0333990827"><ele>276.04</ele><time>2014-07-16T10:23:11Z</time></trkpt><trkpt lat="51.8555494677" lon="-2.0333906170"><ele>279.40</ele><time>2014-07-16T10:23:12Z</time></trkpt><trkpt lat="51.8555566762" lon="-2.0333767030"><ele>277.96</ele><time>2014-07-16T10:23:15Z</time></trkpt><trkpt lat="51.8555623759" lon="-2.0333719254"><ele>279.40</ele><time>2014-07-16T10:23:17Z</time></trkpt><trkpt lat="51.8555728532" lon="-2.0333641302"><ele>277.00</ele><time>2014-07-16T10:23:20Z</time></trkpt><trkpt lat="51.8555834983" lon="-2.0333569217"><ele>280.84</ele><time>2014-07-16T10:23:22Z</time></trkpt><trkpt lat="51.8555876892" lon="-2.0333552454"><ele>277.00</ele><time>2014-07-16T10:23:23Z</time></trkpt><trkpt lat="51.8555904552" lon="-2.0333530661"><ele>277.96</ele><time>2014-07-16T10:23:24Z</time></trkpt><trkpt lat="51.8555943109" lon="-2.0333489589"><ele>278.92</ele><time>2014-07-16T10:23:26Z</time></trkpt><trkpt lat="51.8555968255" lon="-2.0333469473"><ele>275.56</ele><time>2014-07-16T10:23:27Z</time></trkpt><trkpt lat="51.8555985857" lon="-2.0333446003"><ele>279.40</ele><time>2014-07-16T10:23:28Z</time></trkpt><trkpt lat="51.8556067161" lon="-2.0333356317"><ele>274.59</ele><time>2014-07-16T10:23:32Z</time></trkpt><trkpt lat="51.8556086440" lon="-2.0333335362"><ele>278.92</ele><time>2014-07-16T10:23:33Z</time></trkpt><trkpt lat="51.8556247372" lon="-2.0333175268"><ele>275.07</ele><time>2014-07-16T10:23:39Z</time></trkpt><trkpt lat="51.8556324486" lon="-2.0333129168"><ele>279.40</ele><time>2014-07-16T10:23:40Z</time></trkpt><trkpt lat="51.8556495477" lon="-2.0333036967"><ele>274.59</ele><time>2014-07-16T10:23:42Z</time></trkpt><trkpt lat="51.8556575943" lon="-2.0332975779"><ele>275.07</ele><time>2014-07-16T10:23:43Z</time></trkpt><trkpt lat="51.8556658085" lon="-2.0332914591"><ele>278.92</ele><time>2014-07-16T10:23:44Z</time></trkpt><trkpt lat="51.8556769565" lon="-2.0332878549"><ele>282.77</ele><time>2014-07-16T10:23:45Z</time></trkpt><trkpt lat="51.8556859251" lon="-2.0332848374"><ele>274.59</ele><time>2014-07-16T10:23:46Z</time></trkpt><trkpt lat="51.8556946423" lon="-2.0332795568"><ele>278.92</ele><time>2014-07-16T10:23:47Z</time></trkpt><trkpt lat="51.8557114061" lon="-2.0332714263"><ele>277.48</ele><time>2014-07-16T10:23:50Z</time></trkpt><trkpt lat="51.8557162676" lon="-2.0332644694"><ele>280.36</ele><time>2014-07-16T10:23:52Z</time></trkpt><trkpt lat="51.8557189498" lon="-2.0332604460"><ele>275.56</ele><time>2014-07-16T10:23:53Z</time></trkpt><trkpt lat="51.8557350431" lon="-2.0332515612"><ele>276.52</ele><time>2014-07-16T10:23:54Z</time></trkpt><trkpt lat="51.8557522260" lon="-2.0332350489"><ele>281.32</ele><time>2014-07-16T10:23:56Z</time></trkpt><trkpt lat="51.8557586800" lon="-2.0332299359"><ele>279.40</ele><time>2014-07-16T10:23:57Z</time></trkpt><trkpt lat="51.8557637930" lon="-2.0332253259"><ele>276.04</ele><time>2014-07-16T10:23:58Z</time></trkpt><trkpt lat="51.8557805568" lon="-2.0332148485"><ele>281.32</ele><time>2014-07-16T10:24:00Z</time></trkpt><trkpt lat="51.8557898607" lon="-2.0332081430"><ele>277.00</ele><time>2014-07-16T10:24:01Z</time></trkpt><trkpt lat="51.8558094744" lon="-2.0331912953"><ele>280.36</ele><time>2014-07-16T10:24:03Z</time></trkpt><trkpt lat="51.8558264896" lon="-2.0331793930"><ele>280.36</ele><time>2014-07-16T10:24:04Z</time></trkpt><trkpt lat="51.8558370508" lon="-2.0331695862"><ele>276.04</ele><time>2014-07-16T10:24:05Z</time></trkpt><trkpt lat="51.8558478635" lon="-2.0331606176"><ele>278.92</ele><time>2014-07-16T10:24:06Z</time></trkpt><trkpt lat="51.8560389709" lon="-2.0331039559"><ele>276.52</ele><time>2014-07-16T10:24:15Z</time></trkpt><trkpt lat="51.8560419045" lon="-2.0331031177"><ele>279.88</ele><time>2014-07-16T10:24:16Z</time></trkpt><trkpt lat="51.8561145756" lon="-2.0330770500"><ele>276.04</ele><time>2014-07-16T10:24:20Z</time></trkpt><trkpt lat="51.8561276514" lon="-2.0330643933"><ele>281.32</ele><time>2014-07-16T10:24:22Z</time></trkpt><trkpt lat="51.8561346922" lon="-2.0330582745"><ele>280.36</ele><time>2014-07-16T10:24:23Z</time></trkpt><trkpt lat="51.8561363686" lon="-2.0330540836"><ele>276.52</ele><time>2014-07-16T10:24:24Z</time></trkpt><trkpt lat="51.8561382126" lon="-2.0330499765"><ele>279.40</ele><time>2014-07-16T10:24:25Z</time></trkpt><trkpt lat="51.8561788648" lon="-2.0330158621"><ele>270.75</ele><time>2014-07-16T10:24:30Z</time></trkpt><trkpt lat="51.8561843969" lon="-2.0330053009"><ele>282.77</ele><time>2014-07-16T10:24:31Z</time></trkpt><trkpt lat="51.8561858218" lon="-2.0330050495"><ele>281.32</ele><time>2014-07-16T10:24:32Z</time></trkpt><trkpt lat="51.8561870791" lon="-2.0330050495"><ele>276.52</ele><time>2014-07-16T10:24:33Z</time></trkpt><trkpt lat="51.8561883364" lon="-2.0330049656"><ele>277.48</ele><time>2014-07-16T10:24:34Z</time></trkpt><trkpt lat="51.8561893422" lon="-2.0330026187"><ele>280.84</ele><time>2014-07-16T10:24:35Z</time></trkpt><trkpt lat="51.8561915215" lon="-2.0330016967"><ele>277.48</ele><time>2014-07-16T10:24:36Z</time></trkpt><trkpt lat="51.8561924435" lon="-2.0330013614"><ele>280.84</ele><time>2014-07-16T10:24:37Z</time></trkpt><trkpt lat="51.8561941199" lon="-2.0330001041"><ele>276.04</ele><time>2014-07-16T10:24:38Z</time></trkpt><trkpt lat="51.8561965507" lon="-2.0329986792"><ele>279.40</ele><time>2014-07-16T10:24:39Z</time></trkpt><trkpt lat="51.8562200200" lon="-2.0329804905"><ele>280.36</ele><time>2014-07-16T10:24:41Z</time></trkpt><trkpt lat="51.8562400527" lon="-2.0329710189"><ele>278.44</ele><time>2014-07-16T10:24:43Z</time></trkpt><trkpt lat="51.8562735803" lon="-2.0329514053"><ele>281.32</ele><time>2014-07-16T10:24:45Z</time></trkpt><trkpt lat="51.8562850635" lon="-2.0329421014"><ele>277.00</ele><time>2014-07-16T10:24:46Z</time></trkpt><trkpt lat="51.8562931102" lon="-2.0329331327"><ele>278.44</ele><time>2014-07-16T10:24:47Z</time></trkpt><trkpt lat="51.8562973011" lon="-2.0329246670"><ele>280.36</ele><time>2014-07-16T10:24:49Z</time></trkpt><trkpt lat="51.8563360255" lon="-2.0328896306"><ele>279.88</ele><time>2014-07-16T10:24:53Z</time></trkpt><trkpt lat="51.8563516997" lon="-2.0328768063"><ele>281.80</ele><time>2014-07-16T10:24:55Z</time></trkpt><trkpt lat="51.8563569803" lon="-2.0328705199"><ele>277.48</ele><time>2014-07-16T10:24:56Z</time></trkpt><trkpt lat="51.8563610874" lon="-2.0328644849"><ele>279.88</ele><time>2014-07-16T10:24:57Z</time></trkpt><trkpt lat="51.8563667033" lon="-2.0328594558"><ele>283.73</ele><time>2014-07-16T10:24:58Z</time></trkpt><trkpt lat="51.8563762587" lon="-2.0328523312"><ele>279.40</ele><time>2014-07-16T10:24:59Z</time></trkpt><trkpt lat="51.8564483430" lon="-2.0328228269"><ele>283.25</ele><time>2014-07-16T10:25:06Z</time></trkpt><trkpt lat="51.8564564735" lon="-2.0328188874"><ele>279.88</ele><time>2014-07-16T10:25:07Z</time></trkpt><trkpt lat="51.8564972095" lon="-2.0327891316"><ele>276.52</ele><time>2014-07-16T10:25:11Z</time></trkpt><trkpt lat="51.8565106206" lon="-2.0327799954"><ele>277.48</ele><time>2014-07-16T10:25:12Z</time></trkpt><trkpt lat="51.8565148115" lon="-2.0327780675"><ele>280.84</ele><time>2014-07-16T10:25:13Z</time></trkpt><trkpt lat="51.8565190863" lon="-2.0327768102"><ele>280.36</ele><time>2014-07-16T10:25:14Z</time></trkpt><trkpt lat="51.8565350119" lon="-2.0327695180"><ele>277.48</ele><time>2014-07-16T10:25:17Z</time></trkpt><trkpt lat="51.8565381970" lon="-2.0327667519"><ele>279.88</ele><time>2014-07-16T10:25:18Z</time></trkpt><trkpt lat="51.8565605767" lon="-2.0327561069"><ele>283.25</ele><time>2014-07-16T10:25:19Z</time></trkpt><trkpt lat="51.8565650191" lon="-2.0327529218"><ele>281.80</ele><time>2014-07-16T10:25:20Z</time></trkpt><trkpt lat="51.8565855548" lon="-2.0327395946"><ele>277.96</ele><time>2014-07-16T10:25:21Z</time></trkpt><trkpt lat="51.8565888237" lon="-2.0327359904"><ele>279.40</ele><time>2014-07-16T10:25:22Z</time></trkpt><trkpt lat="51.8566081859" lon="-2.0327214897"><ele>282.28</ele><time>2014-07-16T10:25:24Z</time></trkpt><trkpt lat="51.8566105329" lon="-2.0327197295"><ele>278.44</ele><time>2014-07-16T10:25:25Z</time></trkpt><trkpt lat="51.8566257041" lon="-2.0327074919"><ele>278.92</ele><time>2014-07-16T10:25:26Z</time></trkpt><trkpt lat="51.8566614110" lon="-2.0326794125"><ele>282.77</ele><time>2014-07-16T10:25:29Z</time></trkpt><trkpt lat="51.8566721398" lon="-2.0326693542"><ele>277.96</ele><time>2014-07-16T10:25:30Z</time></trkpt><trkpt lat="51.8566894066" lon="-2.0326474775"><ele>282.77</ele><time>2014-07-16T10:25:32Z</time></trkpt><trkpt lat="51.8567038234" lon="-2.0326385088"><ele>281.80</ele><time>2014-07-16T10:25:33Z</time></trkpt><trkpt lat="51.8567158096" lon="-2.0326261874"><ele>277.96</ele><time>2014-07-16T10:25:34Z</time></trkpt><trkpt lat="51.8567288015" lon="-2.0326162130"><ele>279.40</ele><time>2014-07-16T10:25:35Z</time></trkpt><trkpt lat="51.8567527737" lon="-2.0325967669"><ele>283.25</ele><time>2014-07-16T10:25:37Z</time></trkpt><trkpt lat="51.8567595631" lon="-2.0325874630"><ele>283.73</ele><time>2014-07-16T10:25:38Z</time></trkpt><trkpt lat="51.8567658495" lon="-2.0325811766"><ele>279.40</ele><time>2014-07-16T10:25:39Z</time></trkpt><trkpt lat="51.8567824457" lon="-2.0325551089"><ele>283.73</ele><time>2014-07-16T10:25:42Z</time></trkpt><trkpt lat="51.8567868881" lon="-2.0325472299"><ele>282.28</ele><time>2014-07-16T10:25:43Z</time></trkpt><trkpt lat="51.8567914143" lon="-2.0325388480"><ele>277.96</ele><time>2014-07-16T10:25:44Z</time></trkpt><trkpt lat="51.8567971978" lon="-2.0325281192"><ele>279.88</ele><time>2014-07-16T10:25:45Z</time></trkpt><trkpt lat="51.8568244390" lon="-2.0324955136"><ele>283.25</ele><time>2014-07-16T10:25:47Z</time></trkpt><trkpt lat="51.8568437174" lon="-2.0324749779"><ele>277.96</ele><time>2014-07-16T10:25:48Z</time></trkpt><trkpt lat="51.8568637501" lon="-2.0324505027"><ele>278.44</ele><time>2014-07-16T10:25:49Z</time></trkpt><trkpt lat="51.8568825256" lon="-2.0324329007"><ele>281.32</ele><time>2014-07-16T10:25:50Z</time></trkpt><trkpt lat="51.8568969425" lon="-2.0324216690"><ele>279.88</ele><time>2014-07-16T10:25:51Z</time></trkpt><trkpt lat="51.8569132872" lon="-2.0324028935"><ele>283.73</ele><time>2014-07-16T10:25:53Z</time></trkpt><trkpt lat="51.8569205794" lon="-2.0323876385"><ele>279.88</ele><time>2014-07-16T10:25:54Z</time></trkpt><trkpt lat="51.8569336552" lon="-2.0323721319"><ele>279.40</ele><time>2014-07-16T10:25:55Z</time></trkpt><trkpt lat="51.8569494970" lon="-2.0323440526"><ele>283.73</ele><time>2014-07-16T10:25:57Z</time></trkpt><trkpt lat="51.8569676857" lon="-2.0323259477"><ele>278.92</ele><time>2014-07-16T10:25:59Z</time></trkpt><trkpt lat="51.8569879699" lon="-2.0323101897"><ele>283.73</ele><time>2014-07-16T10:26:01Z</time></trkpt><trkpt lat="51.8569978606" lon="-2.0322935935"><ele>281.80</ele><time>2014-07-16T10:26:02Z</time></trkpt><trkpt lat="51.8571090046" lon="-2.0320977923"><ele>282.28</ele><time>2014-07-16T10:26:18Z</time></trkpt><trkpt lat="51.8571219128" lon="-2.0320801903"><ele>278.92</ele><time>2014-07-16T10:26:19Z</time></trkpt><trkpt lat="51.8571317196" lon="-2.0320666116"><ele>279.40</ele><time>2014-07-16T10:26:20Z</time></trkpt><trkpt lat="51.8571549375" lon="-2.0320385322"><ele>283.73</ele><time>2014-07-16T10:26:22Z</time></trkpt><trkpt lat="51.8571550213" lon="-2.0320378616"><ele>282.28</ele><time>2014-07-16T10:26:23Z</time></trkpt><trkpt lat="51.8571554404" lon="-2.0320364367"><ele>278.92</ele><time>2014-07-16T10:26:24Z</time></trkpt><trkpt lat="51.8571634032" lon="-2.0320253726"><ele>281.32</ele><time>2014-07-16T10:26:25Z</time></trkpt><trkpt lat="51.8572000321" lon="-2.0319635142"><ele>278.92</ele><time>2014-07-16T10:26:31Z</time></trkpt><trkpt lat="51.8572062347" lon="-2.0319512766"><ele>282.77</ele><time>2014-07-16T10:26:32Z</time></trkpt><trkpt lat="51.8572217412" lon="-2.0319257956"><ele>278.92</ele><time>2014-07-16T10:26:35Z</time></trkpt><trkpt lat="51.8572297879" lon="-2.0319179166"><ele>281.80</ele><time>2014-07-16T10:26:36Z</time></trkpt><trkpt lat="51.8572401814" lon="-2.0319094509"><ele>277.00</ele><time>2014-07-16T10:26:37Z</time></trkpt><trkpt lat="51.8572582863" lon="-2.0318817068"><ele>281.32</ele><time>2014-07-16T10:26:40Z</time></trkpt><trkpt lat="51.8572637346" lon="-2.0318712294"><ele>278.44</ele><time>2014-07-16T10:26:41Z</time></trkpt><trkpt lat="51.8572677579" lon="-2.0318615064"><ele>283.25</ele><time>2014-07-16T10:26:42Z</time></trkpt><trkpt lat="51.8572794925" lon="-2.0318437368"><ele>278.92</ele><time>2014-07-16T10:26:44Z</time></trkpt><trkpt lat="51.8572810851" lon="-2.0318348520"><ele>280.84</ele><time>2014-07-16T10:26:45Z</time></trkpt><trkpt lat="51.8572846055" lon="-2.0316338539"><ele>284.21</ele><time>2014-07-16T10:26:55Z</time></trkpt><trkpt lat="51.8572936580" lon="-2.0316211134"><ele>280.36</ele><time>2014-07-16T10:26:56Z</time></trkpt><trkpt lat="51.8573157862" lon="-2.0315764379"><ele>283.73</ele><time>2014-07-16T10:26:59Z</time></trkpt><trkpt lat="51.8573190551" lon="-2.0315595903"><ele>282.77</ele><time>2014-07-16T10:27:00Z</time></trkpt><trkpt lat="51.8573230784" lon="-2.0315463468"><ele>279.40</ele><time>2014-07-16T10:27:01Z</time></trkpt><trkpt lat="51.8573306222" lon="-2.0315364562"><ele>281.80</ele><time>2014-07-16T10:27:02Z</time></trkpt><trkpt lat="51.8573364895" lon="-2.0315308403"><ele>285.17</ele><time>2014-07-16T10:27:03Z</time></trkpt><trkpt lat="51.8573405966" lon="-2.0315241348"><ele>280.36</ele><time>2014-07-16T10:27:04Z</time></trkpt><trkpt lat="51.8573460449" lon="-2.0314797107"><ele>284.21</ele><time>2014-07-16T10:27:08Z</time></trkpt><trkpt lat="51.8573489785" lon="-2.0314689819"><ele>279.88</ele><time>2014-07-16T10:27:09Z</time></trkpt><trkpt lat="51.8573520798" lon="-2.0314559899"><ele>281.32</ele><time>2014-07-16T10:27:10Z</time></trkpt><trkpt lat="51.8573589530" lon="-2.0314284973"><ele>284.69</ele><time>2014-07-16T10:27:12Z</time></trkpt><trkpt lat="51.8573699333" lon="-2.0313959755"><ele>279.40</ele><time>2014-07-16T10:27:14Z</time></trkpt><trkpt lat="51.8573777284" lon="-2.0313810557"><ele>282.77</ele><time>2014-07-16T10:27:15Z</time></trkpt><trkpt lat="51.8573970068" lon="-2.0313364640"><ele>283.73</ele><time>2014-07-16T10:27:18Z</time></trkpt><trkpt lat="51.8574028742" lon="-2.0313227177"><ele>278.92</ele><time>2014-07-16T10:27:19Z</time></trkpt><trkpt lat="51.8574055564" lon="-2.0313103124"><ele>280.36</ele><time>2014-07-16T10:27:20Z</time></trkpt><trkpt lat="51.8574065622" lon="-2.0312867593"><ele>283.73</ele><time>2014-07-16T10:27:22Z</time></trkpt><trkpt lat="51.8574055564" lon="-2.0312756952"><ele>279.40</ele><time>2014-07-16T10:27:23Z</time></trkpt><trkpt lat="51.8574069813" lon="-2.0312594343"><ele>284.69</ele><time>2014-07-16T10:27:25Z</time></trkpt><trkpt lat="51.8574071489" lon="-2.0312589314"><ele>280.84</ele><time>2014-07-16T10:27:26Z</time></trkpt><trkpt lat="51.8574069813" lon="-2.0312551595"><ele>282.77</ele><time>2014-07-16T10:27:29Z</time></trkpt><trkpt lat="51.8574227393" lon="-2.0311929658"><ele>283.73</ele><time>2014-07-16T10:27:34Z</time></trkpt><trkpt lat="51.8574253377" lon="-2.0311775431"><ele>278.92</ele><time>2014-07-16T10:27:35Z</time></trkpt><trkpt lat="51.8574308697" lon="-2.0311612822"><ele>281.32</ele><time>2014-07-16T10:27:36Z</time></trkpt><trkpt lat="51.8574560154" lon="-2.0311016869"><ele>281.80</ele><time>2014-07-16T10:27:40Z</time></trkpt><trkpt lat="51.8574956618" lon="-2.0310447738"><ele>281.80</ele><time>2014-07-16T10:27:45Z</time></trkpt><trkpt lat="51.8575071450" lon="-2.0310330391"><ele>284.69</ele><time>2014-07-16T10:27:46Z</time></trkpt><trkpt lat="51.8575177062" lon="-2.0310225617"><ele>284.21</ele><time>2014-07-16T10:27:47Z</time></trkpt><trkpt lat="51.8575197179" lon="-2.0310208015"><ele>280.36</ele><time>2014-07-16T10:27:48Z</time></trkpt><trkpt lat="51.8575208914" lon="-2.0310190413"><ele>281.80</ele><time>2014-07-16T10:27:49Z</time></trkpt><trkpt lat="51.8575265910" lon="-2.0310063846"><ele>284.69</ele><time>2014-07-16T10:27:50Z</time></trkpt><trkpt lat="51.8575314526" lon="-2.0309941471"><ele>283.73</ele><time>2014-07-16T10:27:51Z</time></trkpt><trkpt lat="51.8575370684" lon="-2.0309773833"><ele>279.40</ele><time>2014-07-16T10:27:52Z</time></trkpt><trkpt lat="51.8575435225" lon="-2.0309612900"><ele>281.32</ele><time>2014-07-16T10:27:53Z</time></trkpt><trkpt lat="51.8575634714" lon="-2.0309202187"><ele>285.65</ele><time>2014-07-16T10:27:56Z</time></trkpt><trkpt lat="51.8575771339" lon="-2.0309028681"><ele>283.25</ele><time>2014-07-16T10:27:57Z</time></trkpt><trkpt lat="51.8576062191" lon="-2.0308665745"><ele>286.61</ele><time>2014-07-16T10:28:00Z</time></trkpt><trkpt lat="51.8576093204" lon="-2.0308540016"><ele>283.25</ele><time>2014-07-16T10:28:01Z</time></trkpt><trkpt lat="51.8576493021" lon="-2.0308140200"><ele>285.65</ele><time>2014-07-16T10:28:05Z</time></trkpt><trkpt lat="51.8576635513" lon="-2.0307874493"><ele>281.32</ele><time>2014-07-16T10:28:07Z</time></trkpt><trkpt lat="51.8576698378" lon="-2.0307779778"><ele>283.73</ele><time>2014-07-16T10:28:08Z</time></trkpt><trkpt lat="51.8577215541" lon="-2.0307059772"><ele>282.77</ele><time>2014-07-16T10:28:15Z</time></trkpt><trkpt lat="51.8577369768" lon="-2.0306918118"><ele>285.17</ele><time>2014-07-16T10:28:17Z</time></trkpt><trkpt lat="51.8577508070" lon="-2.0306783170"><ele>281.32</ele><time>2014-07-16T10:28:19Z</time></trkpt><trkpt lat="51.8577591050" lon="-2.0306743775"><ele>283.25</ele><time>2014-07-16T10:28:20Z</time></trkpt><trkpt lat="51.8577733543" lon="-2.0306631457"><ele>285.17</ele><time>2014-07-16T10:28:22Z</time></trkpt><trkpt lat="51.8577947281" lon="-2.0306444541"><ele>283.25</ele><time>2014-07-16T10:28:24Z</time></trkpt><trkpt lat="51.8578043673" lon="-2.0306342281"><ele>287.09</ele><time>2014-07-16T10:28:25Z</time></trkpt><trkpt lat="51.8578126654" lon="-2.0306248404"><ele>285.17</ele><time>2014-07-16T10:28:26Z</time></trkpt><trkpt lat="51.8578442652" lon="-2.0305974316"><ele>287.09</ele><time>2014-07-16T10:28:30Z</time></trkpt><trkpt lat="51.8578531500" lon="-2.0305875409"><ele>282.28</ele><time>2014-07-16T10:28:32Z</time></trkpt><trkpt lat="51.8578591011" lon="-2.0305777341"><ele>284.21</ele><time>2014-07-16T10:28:33Z</time></trkpt><trkpt lat="51.8578641303" lon="-2.0305703580"><ele>287.57</ele><time>2014-07-16T10:28:34Z</time></trkpt><trkpt lat="51.8578702491" lon="-2.0305649936"><ele>283.73</ele><time>2014-07-16T10:28:35Z</time></trkpt><trkpt lat="51.8578967359" lon="-2.0305486489"><ele>287.57</ele><time>2014-07-16T10:28:38Z</time></trkpt><trkpt lat="51.8579053693" lon="-2.0305430330"><ele>281.32</ele><time>2014-07-16T10:28:39Z</time></trkpt><trkpt lat="51.8579128291" lon="-2.0305338968"><ele>284.21</ele><time>2014-07-16T10:28:40Z</time></trkpt><trkpt lat="51.8579194508" lon="-2.0305260178"><ele>288.05</ele><time>2014-07-16T10:28:41Z</time></trkpt><trkpt lat="51.8579268269" lon="-2.0305220783"><ele>285.17</ele><time>2014-07-16T10:28:42Z</time></trkpt><trkpt lat="51.8579599354" lon="-2.0305029675"><ele>288.53</ele><time>2014-07-16T10:28:46Z</time></trkpt><trkpt lat="51.8579836562" lon="-2.0304861199"><ele>283.25</ele><time>2014-07-16T10:28:48Z</time></trkpt><trkpt lat="51.8580000009" lon="-2.0304691046"><ele>289.01</ele><time>2014-07-16T10:28:50Z</time></trkpt><trkpt lat="51.8580006715" lon="-2.0304681826"><ele>282.77</ele><time>2014-07-16T10:28:51Z</time></trkpt><trkpt lat="51.8580015097" lon="-2.0304672606"><ele>283.25</ele><time>2014-07-16T10:28:52Z</time></trkpt><trkpt lat="51.8580074608" lon="-2.0304598846"><ele>286.61</ele><time>2014-07-16T10:28:53Z</time></trkpt><trkpt lat="51.8580208719" lon="-2.0304499939"><ele>283.25</ele><time>2014-07-16T10:28:55Z</time></trkpt><trkpt lat="51.8580430001" lon="-2.0304387622"><ele>288.53</ele><time>2014-07-16T10:28:57Z</time></trkpt><trkpt lat="51.8580652121" lon="-2.0304228365"><ele>285.65</ele><time>2014-07-16T10:28:59Z</time></trkpt><trkpt lat="51.8581281602" lon="-2.0303789992"><ele>289.01</ele><time>2014-07-16T10:29:05Z</time></trkpt><trkpt lat="51.8581355363" lon="-2.0303693600"><ele>284.69</ele><time>2014-07-16T10:29:06Z</time></trkpt><trkpt lat="51.8581668008" lon="-2.0303339045"><ele>289.49</ele><time>2014-07-16T10:29:09Z</time></trkpt><trkpt lat="51.8581772782" lon="-2.0303222537"><ele>284.21</ele><time>2014-07-16T10:29:10Z</time></trkpt><trkpt lat="51.8581854086" lon="-2.0303111896"><ele>287.09</ele><time>2014-07-16T10:29:11Z</time></trkpt><trkpt lat="51.8582307547" lon="-2.0302673522"><ele>286.13</ele><time>2014-07-16T10:29:16Z</time></trkpt><trkpt lat="51.8582413159" lon="-2.0302582998"><ele>289.01</ele><time>2014-07-16T10:29:17Z</time></trkpt><trkpt lat="51.8582489435" lon="-2.0302489959"><ele>287.09</ele><time>2014-07-16T10:29:18Z</time></trkpt><trkpt lat="51.8582791183" lon="-2.0302019734"><ele>285.65</ele><time>2014-07-16T10:29:23Z</time></trkpt><trkpt lat="51.8582967203" lon="-2.0301725529"><ele>289.49</ele><time>2014-07-16T10:29:26Z</time></trkpt><trkpt lat="51.8583004083" lon="-2.0301657636"><ele>284.69</ele><time>2014-07-16T10:29:27Z</time></trkpt><trkpt lat="51.8583082873" lon="-2.0301495027"><ele>290.46</ele><time>2014-07-16T10:29:29Z</time></trkpt><trkpt lat="51.8583177589" lon="-2.0301420428"><ele>286.61</ele><time>2014-07-16T10:29:30Z</time></trkpt><trkpt lat="51.8583431561" lon="-2.0301095210"><ele>290.46</ele><time>2014-07-16T10:29:33Z</time></trkpt><trkpt lat="51.8583525438" lon="-2.0301031508"><ele>286.13</ele><time>2014-07-16T10:29:34Z</time></trkpt><trkpt lat="51.8583822995" lon="-2.0300835371"><ele>290.94</ele><time>2014-07-16T10:29:38Z</time></trkpt><trkpt lat="51.8583912682" lon="-2.0300807711"><ele>285.65</ele><time>2014-07-16T10:29:39Z</time></trkpt><trkpt lat="51.8584000692" lon="-2.0300764125"><ele>285.65</ele><time>2014-07-16T10:29:40Z</time></trkpt><trkpt lat="51.8584063556" lon="-2.0300661027"><ele>290.46</ele><time>2014-07-16T10:29:41Z</time></trkpt><trkpt lat="51.8584092055" lon="-2.0300594810"><ele>289.01</ele><time>2014-07-16T10:29:42Z</time></trkpt><trkpt lat="51.8584103789" lon="-2.0300583914"><ele>284.69</ele><time>2014-07-16T10:29:43Z</time></trkpt><trkpt lat="51.8584180903" lon="-2.0300496742"><ele>288.53</ele><time>2014-07-16T10:29:44Z</time></trkpt><trkpt lat="51.8584385421" lon="-2.0300167333"><ele>287.09</ele><time>2014-07-16T10:29:47Z</time></trkpt><trkpt lat="51.8584773503" lon="-2.0299656037"><ele>290.46</ele><time>2014-07-16T10:29:54Z</time></trkpt><trkpt lat="51.8584869057" lon="-2.0299553778"><ele>286.13</ele><time>2014-07-16T10:29:55Z</time></trkpt><trkpt lat="51.8584967963" lon="-2.0299461577"><ele>288.05</ele><time>2014-07-16T10:29:56Z</time></trkpt><trkpt lat="51.8585330900" lon="-2.0299199224"><ele>286.13</ele><time>2014-07-16T10:30:00Z</time></trkpt><trkpt lat="51.8585555535" lon="-2.0299179107"><ele>290.94</ele><time>2014-07-16T10:30:02Z</time></trkpt><trkpt lat="51.8585647736" lon="-2.0299226046"><ele>287.57</ele><time>2014-07-16T10:30:03Z</time></trkpt><trkpt lat="51.8585799448" lon="-2.0299221855"><ele>291.42</ele><time>2014-07-16T10:30:11Z</time></trkpt><trkpt lat="51.8585791904" lon="-2.0299124625"><ele>288.53</ele><time>2014-07-16T10:30:14Z</time></trkpt><trkpt lat="51.8585962057" lon="-2.0298811141"><ele>286.61</ele><time>2014-07-16T10:30:32Z</time></trkpt><trkpt lat="51.8586029951" lon="-2.0298842993"><ele>290.94</ele><time>2014-07-16T10:30:35Z</time></trkpt><trkpt lat="51.8586103711" lon="-2.0298862271"><ele>290.94</ele><time>2014-07-16T10:30:36Z</time></trkpt><trkpt lat="51.8586166576" lon="-2.0298891608"><ele>285.65</ele><time>2014-07-16T10:30:37Z</time></trkpt><trkpt lat="51.8586200103" lon="-2.0298913401"><ele>290.46</ele><time>2014-07-16T10:30:38Z</time></trkpt><trkpt lat="51.8586205132" lon="-2.0298931003"><ele>284.21</ele><time>2014-07-16T10:30:39Z</time></trkpt><trkpt lat="51.8586236145" lon="-2.0299050026"><ele>288.53</ele><time>2014-07-16T10:30:40Z</time></trkpt><trkpt lat="51.8586428091" lon="-2.0299574733"><ele>288.05</ele><time>2014-07-16T10:30:53Z</time></trkpt><trkpt lat="51.8586402945" lon="-2.0299642626"><ele>289.49</ele><time>2014-07-16T10:31:02Z</time></trkpt><trkpt lat="51.8586509395" lon="-2.0299701300"><ele>289.49</ele><time>2014-07-16T10:31:30Z</time></trkpt><trkpt lat="51.8586614169" lon="-2.0299666934"><ele>289.49</ele><time>2014-07-16T10:31:38Z</time></trkpt><trkpt lat="51.8586880714" lon="-2.0299551263"><ele>289.01</ele><time>2014-07-16T10:31:40Z</time></trkpt><trkpt lat="51.8588749040" lon="-2.0298412163"><ele>289.01</ele><time>2014-07-16T10:31:58Z</time></trkpt><trkpt lat="51.8590652570" lon="-2.0298517775"><ele>289.01</ele><time>2014-07-16T10:32:15Z</time></trkpt><trkpt lat="51.8591846991" lon="-2.0299096964"><ele>289.01</ele><time>2014-07-16T10:32:31Z</time></trkpt><trkpt lat="51.8592829350" lon="-2.0299494267"><ele>289.01</ele><time>2014-07-16T10:32:51Z</time></trkpt><trkpt lat="51.8595033791" lon="-2.0300437231"><ele>289.01</ele><time>2014-07-16T10:33:11Z</time></trkpt><trkpt lat="51.8596789800" lon="-2.0301278774"><ele>289.49</ele><time>2014-07-16T10:33:32Z</time></trkpt><trkpt lat="51.8597597815" lon="-2.0301554538"><ele>289.97</ele><time>2014-07-16T10:33:49Z</time></trkpt><trkpt lat="51.8599785492" lon="-2.0302470680"><ele>290.46</ele><time>2014-07-16T10:34:04Z</time></trkpt><trkpt lat="51.8600726780" lon="-2.0302506723"><ele>290.46</ele><time>2014-07-16T10:34:18Z</time></trkpt><trkpt lat="51.8602083810" lon="-2.0302889775"><ele>290.94</ele><time>2014-07-16T10:34:36Z</time></trkpt><trkpt lat="51.8602815550" lon="-2.0303113572"><ele>290.94</ele><time>2014-07-16T10:34:55Z</time></trkpt><trkpt lat="51.8604217004" lon="-2.0303558651"><ele>290.94</ele><time>2014-07-16T10:35:06Z</time></trkpt><trkpt lat="51.8606399652" lon="-2.0304509159"><ele>290.46</ele><time>2014-07-16T10:35:21Z</time></trkpt><trkpt lat="51.8608369399" lon="-2.0305275265"><ele>291.90</ele><time>2014-07-16T10:35:38Z</time></trkpt><trkpt lat="51.8610291369" lon="-2.0306387544"><ele>291.42</ele><time>2014-07-16T10:35:55Z</time></trkpt><trkpt lat="51.8610811047" lon="-2.0306475554"><ele>292.38</ele><time>2014-07-16T10:36:00Z</time></trkpt><trkpt lat="51.8612012174" lon="-2.0307959989"><ele>292.38</ele><time>2014-07-16T10:36:15Z</time></trkpt><trkpt lat="51.8612725474" lon="-2.0308307838"><ele>293.82</ele><time>2014-07-16T10:36:29Z</time></trkpt><trkpt lat="51.8612983637" lon="-2.0308360644"><ele>294.78</ele><time>2014-07-16T10:36:48Z</time></trkpt><trkpt lat="51.8614146207" lon="-2.0309131779"><ele>293.82</ele><time>2014-07-16T10:37:02Z</time></trkpt><trkpt lat="51.8614583742" lon="-2.0309660677"><ele>293.82</ele><time>2014-07-16T10:37:11Z</time></trkpt><trkpt lat="51.8615826778" lon="-2.0310486294"><ele>293.34</ele><time>2014-07-16T10:37:23Z</time></trkpt><trkpt lat="51.8616120145" lon="-2.0310731884"><ele>294.78</ele><time>2014-07-16T10:37:26Z</time></trkpt><trkpt lat="51.8617127649" lon="-2.0311298501"><ele>295.26</ele><time>2014-07-16T10:37:37Z</time></trkpt><trkpt lat="51.8617558479" lon="-2.0311858412"><ele>294.30</ele><time>2014-07-16T10:37:45Z</time></trkpt><trkpt lat="51.8618924730" lon="-2.0312741864"><ele>295.26</ele><time>2014-07-16T10:37:58Z</time></trkpt><trkpt lat="51.8619546667" lon="-2.0313194487"><ele>295.26</ele><time>2014-07-16T10:38:05Z</time></trkpt><trkpt lat="51.8620688282" lon="-2.0313923713"><ele>295.26</ele><time>2014-07-16T10:38:17Z</time></trkpt><trkpt lat="51.8621182814" lon="-2.0314324368"><ele>295.74</ele><time>2014-07-16T10:38:22Z</time></trkpt><trkpt lat="51.8622198701" lon="-2.0314701553"><ele>295.26</ele><time>2014-07-16T10:38:35Z</time></trkpt><trkpt lat="51.8622433394" lon="-2.0314836502"><ele>295.26</ele><time>2014-07-16T10:38:38Z</time></trkpt><trkpt lat="51.8623020127" lon="-2.0315212850"><ele>295.26</ele><time>2014-07-16T10:38:45Z</time></trkpt><trkpt lat="51.8623771146" lon="-2.0315697324"><ele>296.22</ele><time>2014-07-16T10:38:54Z</time></trkpt><trkpt lat="51.8624173477" lon="-2.0316052716"><ele>295.74</ele><time>2014-07-16T10:38:59Z</time></trkpt><trkpt lat="51.8624527194" lon="-2.0316337701"><ele>295.74</ele><time>2014-07-16T10:39:04Z</time></trkpt><trkpt lat="51.8625448365" lon="-2.0317046810"><ele>295.74</ele><time>2014-07-16T10:39:14Z</time></trkpt><trkpt lat="51.8626397196" lon="-2.0317549724"><ele>296.70</ele><time>2014-07-16T10:39:25Z</time></trkpt><trkpt lat="51.8626938667" lon="-2.0318204351"><ele>296.22</ele><time>2014-07-16T10:39:32Z</time></trkpt><trkpt lat="51.8627190962" lon="-2.0318281464"><ele>297.18</ele><time>2014-07-16T10:39:35Z</time></trkpt><trkpt lat="51.8627886660" lon="-2.0318764262"><ele>296.22</ele><time>2014-07-16T10:39:48Z</time></trkpt><trkpt lat="51.8628059328" lon="-2.0319032483"><ele>296.22</ele><time>2014-07-16T10:39:51Z</time></trkpt><trkpt lat="51.8628235348" lon="-2.0319248736"><ele>297.18</ele><time>2014-07-16T10:39:53Z</time></trkpt><trkpt lat="51.8629306555" lon="-2.0320089441"><ele>296.22</ele><time>2014-07-16T10:40:04Z</time></trkpt><trkpt lat="51.8630019017" lon="-2.0320741553"><ele>296.22</ele><time>2014-07-16T10:40:11Z</time></trkpt><trkpt lat="51.8630614132" lon="-2.0321247820"><ele>297.18</ele><time>2014-07-16T10:40:17Z</time></trkpt><trkpt lat="51.8630982935" lon="-2.0321760792"><ele>297.18</ele><time>2014-07-16T10:40:22Z</time></trkpt><trkpt lat="51.8631660193" lon="-2.0322003029"><ele>296.22</ele><time>2014-07-16T10:40:31Z</time></trkpt><trkpt lat="51.8631906621" lon="-2.0322547853"><ele>296.22</ele><time>2014-07-16T10:40:35Z</time></trkpt><trkpt lat="51.8632145505" lon="-2.0322992932"><ele>295.74</ele><time>2014-07-16T10:40:38Z</time></trkpt><trkpt lat="51.8632745650" lon="-2.0323184039"><ele>295.26</ele><time>2014-07-16T10:40:43Z</time></trkpt><trkpt lat="51.8633305561" lon="-2.0323718805"><ele>293.82</ele><time>2014-07-16T10:40:51Z</time></trkpt><trkpt lat="51.8634390179" lon="-2.0324698649"><ele>292.86</ele><time>2014-07-16T10:41:04Z</time></trkpt><trkpt lat="51.8634993676" lon="-2.0325303823"><ele>291.42</ele><time>2014-07-16T10:41:17Z</time></trkpt><trkpt lat="51.8636437040" lon="-2.0327048097"><ele>289.97</ele><time>2014-07-16T10:41:32Z</time></trkpt><trkpt lat="51.8637431134" lon="-2.0328534208"><ele>288.53</ele><time>2014-07-16T10:41:50Z</time></trkpt><trkpt lat="51.8638145272" lon="-2.0329442807"><ele>287.09</ele><time>2014-07-16T10:42:06Z</time></trkpt><trkpt lat="51.8639022857" lon="-2.0330327936"><ele>286.13</ele><time>2014-07-16T10:42:18Z</time></trkpt><trkpt lat="51.8639819976" lon="-2.0331153553"><ele>285.65</ele><time>2014-07-16T10:42:31Z</time></trkpt><trkpt lat="51.8640315346" lon="-2.0330830012"><ele>285.65</ele><time>2014-07-16T10:42:46Z</time></trkpt><trkpt lat="51.8640286848" lon="-2.0330514852"><ele>285.65</ele><time>2014-07-16T10:42:59Z</time></trkpt><trkpt lat="51.8640404195" lon="-2.0330508146"><ele>285.65</ele><time>2014-07-16T10:43:18Z</time></trkpt><trkpt lat="51.8640768807" lon="-2.0330297761"><ele>285.65</ele><time>2014-07-16T10:43:39Z</time></trkpt><trkpt lat="51.8640968297" lon="-2.0330363140"><ele>285.17</ele><time>2014-07-16T10:44:03Z</time></trkpt><trkpt lat="51.8640984222" lon="-2.0330337994"><ele>285.17</ele><time>2014-07-16T10:44:27Z</time></trkpt><trkpt lat="51.8641123362" lon="-2.0330369007"><ele>285.17</ele><time>2014-07-16T10:44:40Z</time></trkpt><trkpt lat="51.8641176168" lon="-2.0330335479"><ele>285.17</ele><time>2014-07-16T10:45:02Z</time></trkpt><trkpt lat="51.8641178682" lon="-2.0330335479"><ele>284.69</ele><time>2014-07-16T10:45:15Z</time></trkpt><trkpt lat="51.8641178682" lon="-2.0330516528"><ele>285.17</ele><time>2014-07-16T10:45:29Z</time></trkpt><trkpt lat="51.8641120009" lon="-2.0330189634"><ele>284.21</ele><time>2014-07-16T10:45:35Z</time></trkpt><trkpt lat="51.8641083129" lon="-2.0329566859"><ele>285.17</ele><time>2014-07-16T10:45:39Z</time></trkpt><trkpt lat="51.8641063012" lon="-2.0328809135"><ele>286.13</ele><time>2014-07-16T10:45:43Z</time></trkpt><trkpt lat="51.8640888669" lon="-2.0326831844"><ele>285.65</ele><time>2014-07-16T10:45:53Z</time></trkpt><trkpt lat="51.8640869390" lon="-2.0326549374"><ele>284.21</ele><time>2014-07-16T10:45:55Z</time></trkpt><trkpt lat="51.8640881963" lon="-2.0326022990"><ele>283.25</ele><time>2014-07-16T10:45:58Z</time></trkpt><trkpt lat="51.8640868552" lon="-2.0324760675"><ele>284.69</ele><time>2014-07-16T10:46:04Z</time></trkpt><trkpt lat="51.8640800659" lon="-2.0324397739"><ele>283.25</ele><time>2014-07-16T10:46:06Z</time></trkpt><trkpt lat="51.8640789762" lon="-2.0324181486"><ele>283.25</ele><time>2014-07-16T10:46:07Z</time></trkpt><trkpt lat="51.8640634697" lon="-2.0322541986"><ele>284.21</ele><time>2014-07-16T10:46:15Z</time></trkpt><trkpt lat="51.8640686665" lon="-2.0320690423"><ele>285.17</ele><time>2014-07-16T10:46:24Z</time></trkpt><trkpt lat="51.8640667386" lon="-2.0320412144"><ele>283.73</ele><time>2014-07-16T10:46:26Z</time></trkpt><trkpt lat="51.8640638888" lon="-2.0318992250"><ele>285.17</ele><time>2014-07-16T10:46:32Z</time></trkpt><trkpt lat="51.8640716840" lon="-2.0318379533"><ele>285.17</ele><time>2014-07-16T10:46:36Z</time></trkpt><trkpt lat="51.8640726060" lon="-2.0317819621"><ele>283.25</ele><time>2014-07-16T10:46:39Z</time></trkpt><trkpt lat="51.8640754558" lon="-2.0316912699"><ele>285.17</ele><time>2014-07-16T10:46:44Z</time></trkpt><trkpt lat="51.8640832510" lon="-2.0316451695"><ele>284.21</ele><time>2014-07-16T10:46:47Z</time></trkpt><trkpt lat="51.8640917167" lon="-2.0315359533"><ele>284.21</ele><time>2014-07-16T10:46:52Z</time></trkpt><trkpt lat="51.8641053792" lon="-2.0314955525"><ele>284.21</ele><time>2014-07-16T10:46:55Z</time></trkpt><trkpt lat="51.8641047925" lon="-2.0312582608"><ele>283.73</ele><time>2014-07-16T10:47:06Z</time></trkpt><trkpt lat="51.8641156051" lon="-2.0311057102"><ele>284.69</ele><time>2014-07-16T10:47:12Z</time></trkpt><trkpt lat="51.8641265854" lon="-2.0310022775"><ele>284.69</ele><time>2014-07-16T10:47:18Z</time></trkpt><trkpt lat="51.8641326204" lon="-2.0308891218"><ele>284.69</ele><time>2014-07-16T10:47:30Z</time></trkpt><trkpt lat="51.8641332909" lon="-2.0308922231"><ele>284.21</ele><time>2014-07-16T10:47:39Z</time></trkpt><trkpt lat="51.8641404994" lon="-2.0308396686"><ele>284.69</ele><time>2014-07-16T10:47:44Z</time></trkpt><trkpt lat="51.8641698360" lon="-2.0306947455"><ele>286.61</ele><time>2014-07-16T10:47:55Z</time></trkpt><trkpt lat="51.8641943112" lon="-2.0305498224"><ele>286.13</ele><time>2014-07-16T10:48:04Z</time></trkpt><trkpt lat="51.8642111588" lon="-2.0305116847"><ele>287.57</ele><time>2014-07-16T10:48:07Z</time></trkpt><trkpt lat="51.8642234802" lon="-2.0304372534"><ele>288.05</ele><time>2014-07-16T10:48:13Z</time></trkpt><trkpt lat="51.8642541580" lon="-2.0303267799"><ele>288.53</ele><time>2014-07-16T10:48:20Z</time></trkpt><trkpt lat="51.8643099815" lon="-2.0301787555"><ele>288.53</ele><time>2014-07-16T10:48:32Z</time></trkpt><trkpt lat="51.8643601891" lon="-2.0300504286"><ele>289.49</ele><time>2014-07-16T10:48:42Z</time></trkpt><trkpt lat="51.8644189462" lon="-2.0299516059"><ele>288.53</ele><time>2014-07-16T10:48:50Z</time></trkpt><trkpt lat="51.8644405715" lon="-2.0298972074"><ele>289.01</ele><time>2014-07-16T10:48:54Z</time></trkpt><trkpt lat="51.8644842412" lon="-2.0297456626"><ele>289.97</ele><time>2014-07-16T10:49:05Z</time></trkpt><trkpt lat="51.8645464350" lon="-2.0295677986"><ele>290.46</ele><time>2014-07-16T10:49:17Z</time></trkpt><trkpt lat="51.8645711616" lon="-2.0294120628"><ele>290.94</ele><time>2014-07-16T10:49:28Z</time></trkpt><trkpt lat="51.8645817228" lon="-2.0293411519"><ele>290.94</ele><time>2014-07-16T10:49:33Z</time></trkpt><trkpt lat="51.8646198604" lon="-2.0292106457"><ele>290.46</ele><time>2014-07-16T10:49:46Z</time></trkpt><trkpt lat="51.8646161724" lon="-2.0292051975"><ele>290.94</ele><time>2014-07-16T10:50:03Z</time></trkpt><trkpt lat="51.8646758515" lon="-2.0290441811"><ele>290.94</ele><time>2014-07-16T10:50:16Z</time></trkpt><trkpt lat="51.8647333514" lon="-2.0288888644"><ele>290.94</ele><time>2014-07-16T10:50:27Z</time></trkpt><trkpt lat="51.8647996522" lon="-2.0287265070"><ele>290.46</ele><time>2014-07-16T10:50:39Z</time></trkpt><trkpt lat="51.8648493569" lon="-2.0285787340"><ele>289.97</ele><time>2014-07-16T10:50:50Z</time></trkpt><trkpt lat="51.8648629356" lon="-2.0285080746"><ele>289.97</ele><time>2014-07-16T10:50:55Z</time></trkpt><trkpt lat="51.8649239559" lon="-2.0283097588"><ele>290.46</ele><time>2014-07-16T10:51:09Z</time></trkpt><trkpt lat="51.8649818748" lon="-2.0281461440"><ele>289.01</ele><time>2014-07-16T10:51:23Z</time></trkpt><trkpt lat="51.8650383689" lon="-2.0280558709"><ele>288.53</ele><time>2014-07-16T10:51:37Z</time></trkpt><trkpt lat="51.8650495168" lon="-2.0280607324"><ele>288.05</ele><time>2014-07-16T10:51:54Z</time></trkpt><trkpt lat="51.8649662007" lon="-2.0279090200"><ele>287.09</ele><time>2014-07-16T10:52:09Z</time></trkpt><trkpt lat="51.8648975529" lon="-2.0277702995"><ele>285.65</ele><time>2014-07-16T10:52:27Z</time></trkpt><trkpt lat="51.8648708146" lon="-2.0276977960"><ele>284.69</ele><time>2014-07-16T10:52:43Z</time></trkpt><trkpt lat="51.8647595029" lon="-2.0275109634"><ele>283.25</ele><time>2014-07-16T10:53:00Z</time></trkpt><trkpt lat="51.8646714091" lon="-2.0273372903"><ele>282.77</ele><time>2014-07-16T10:53:16Z</time></trkpt><trkpt lat="51.8646243028" lon="-2.0271321852"><ele>280.84</ele><time>2014-07-16T10:53:35Z</time></trkpt><trkpt lat="51.8645815551" lon="-2.0269487053"><ele>280.84</ele><time>2014-07-16T10:53:53Z</time></trkpt><trkpt lat="51.8645474408" lon="-2.0266140997"><ele>281.80</ele><time>2014-07-16T10:54:15Z</time></trkpt><trkpt lat="51.8645445071" lon="-2.0265017822"><ele>281.32</ele><time>2014-07-16T10:54:42Z</time></trkpt><trkpt lat="51.8645315152" lon="-2.0264462940"><ele>280.84</ele><time>2014-07-16T10:55:00Z</time></trkpt><trkpt lat="51.8645131588" lon="-2.0263856929"><ele>279.88</ele><time>2014-07-16T10:55:14Z</time></trkpt><trkpt lat="51.8644770328" lon="-2.0262986049"><ele>279.40</ele><time>2014-07-16T10:55:31Z</time></trkpt><trkpt lat="51.8644478638" lon="-2.0262038894"><ele>277.96</ele><time>2014-07-16T10:55:47Z</time></trkpt><trkpt lat="51.8644329440" lon="-2.0261160471"><ele>276.04</ele><time>2014-07-16T10:56:05Z</time></trkpt><trkpt lat="51.8644348718" lon="-2.0260363352"><ele>275.56</ele><time>2014-07-16T10:56:24Z</time></trkpt><trkpt lat="51.8644348718" lon="-2.0260343235"><ele>278.92</ele><time>2014-07-16T10:56:26Z</time></trkpt><trkpt lat="51.8644347880" lon="-2.0260332339"><ele>272.19</ele><time>2014-07-16T10:56:28Z</time></trkpt><trkpt lat="51.8644348718" lon="-2.0260322280"><ele>275.56</ele><time>2014-07-16T10:56:29Z</time></trkpt><trkpt lat="51.8644352909" lon="-2.0260196552"><ele>276.04</ele><time>2014-07-16T10:56:34Z</time></trkpt><trkpt lat="51.8644415773" lon="-2.0259650052"><ele>280.36</ele><time>2014-07-16T10:56:48Z</time></trkpt><trkpt lat="51.8644419126" lon="-2.0259620715"><ele>276.04</ele><time>2014-07-16T10:56:49Z</time></trkpt><trkpt lat="51.8644419964" lon="-2.0259454753"><ele>278.92</ele><time>2014-07-16T10:56:53Z</time></trkpt><trkpt lat="51.8643982429" lon="-2.0258441381"><ele>279.88</ele><time>2014-07-16T10:57:17Z</time></trkpt><trkpt lat="51.8643653020" lon="-2.0256937668"><ele>281.32</ele><time>2014-07-16T10:57:35Z</time></trkpt><trkpt lat="51.8642773759" lon="-2.0255345106"><ele>282.77</ele><time>2014-07-16T10:57:54Z</time></trkpt><trkpt lat="51.8641537428" lon="-2.0254267193"><ele>284.21</ele><time>2014-07-16T10:58:08Z</time></trkpt><trkpt lat="51.8641441036" lon="-2.0254128892"><ele>284.21</ele><time>2014-07-16T10:58:09Z</time></trkpt><trkpt lat="51.8640301097" lon="-2.0252443291"><ele>284.21</ele><time>2014-07-16T10:58:24Z</time></trkpt><trkpt lat="51.8639332149" lon="-2.0251123141"><ele>285.65</ele><time>2014-07-16T10:58:38Z</time></trkpt><trkpt lat="51.8638870306" lon="-2.0250484440"><ele>286.13</ele><time>2014-07-16T10:58:54Z</time></trkpt><trkpt lat="51.8638472166" lon="-2.0250114799"><ele>288.05</ele><time>2014-07-16T10:59:10Z</time></trkpt><trkpt lat="51.8638118450" lon="-2.0249967277"><ele>288.05</ele><time>2014-07-16T10:59:25Z</time></trkpt><trkpt lat="51.8637920637" lon="-2.0249875914"><ele>288.53</ele><time>2014-07-16T10:59:34Z</time></trkpt><trkpt lat="51.8636758905" lon="-2.0249747671"><ele>288.53</ele><time>2014-07-16T10:59:50Z</time></trkpt><trkpt lat="51.8636221625" lon="-2.0249596797"><ele>289.01</ele><time>2014-07-16T11:00:04Z</time></trkpt><trkpt lat="51.8635363318" lon="-2.0248988271"><ele>289.01</ele><time>2014-07-16T11:00:11Z</time></trkpt><trkpt lat="51.8634378444" lon="-2.0247326978"><ele>288.05</ele><time>2014-07-16T11:00:23Z</time></trkpt><trkpt lat="51.8634332344" lon="-2.0246342942"><ele>288.05</ele><time>2014-07-16T11:00:29Z</time></trkpt><trkpt lat="51.8634341564" lon="-2.0245604496"><ele>288.53</ele><time>2014-07-16T11:00:34Z</time></trkpt><trkpt lat="51.8633566238" lon="-2.0243737008"><ele>287.09</ele><time>2014-07-16T11:00:47Z</time></trkpt><trkpt lat="51.8633714598" lon="-2.0241178852"><ele>288.05</ele><time>2014-07-16T11:01:01Z</time></trkpt><trkpt lat="51.8633697834" lon="-2.0238726307"><ele>287.57</ele><time>2014-07-16T11:01:16Z</time></trkpt><trkpt lat="51.8634079210" lon="-2.0236205868"><ele>287.57</ele><time>2014-07-16T11:01:31Z</time></trkpt><trkpt lat="51.8634370063" lon="-2.0234040823"><ele>286.61</ele><time>2014-07-16T11:01:44Z</time></trkpt><trkpt lat="51.8634441309" lon="-2.0233766735"><ele>286.13</ele><time>2014-07-16T11:01:46Z</time></trkpt><trkpt lat="51.8634551950" lon="-2.0232791081"><ele>286.61</ele><time>2014-07-16T11:01:51Z</time></trkpt><trkpt lat="51.8634681031" lon="-2.0230282377"><ele>285.17</ele><time>2014-07-16T11:02:05Z</time></trkpt><trkpt lat="51.8634356651" lon="-2.0229015034"><ele>285.17</ele><time>2014-07-16T11:02:17Z</time></trkpt><trkpt lat="51.8634491600" lon="-2.0227404870"><ele>284.69</ele><time>2014-07-16T11:02:28Z</time></trkpt><trkpt lat="51.8634611461" lon="-2.0225689095"><ele>284.21</ele><time>2014-07-16T11:02:37Z</time></trkpt><trkpt lat="51.8634740543" lon="-2.0223177038"><ele>283.73</ele><time>2014-07-16T11:02:50Z</time></trkpt><trkpt lat="51.8634755630" lon="-2.0223064721"><ele>283.25</ele><time>2014-07-16T11:02:51Z</time></trkpt><trkpt lat="51.8635116890" lon="-2.0220815018"><ele>282.77</ele><time>2014-07-16T11:03:04Z</time></trkpt><trkpt lat="51.8635222502" lon="-2.0218628179"><ele>281.80</ele><time>2014-07-16T11:03:17Z</time></trkpt><trkpt lat="51.8635333981" lon="-2.0216189884"><ele>281.80</ele><time>2014-07-16T11:03:30Z</time></trkpt><trkpt lat="51.8635488208" lon="-2.0214156434"><ele>281.32</ele><time>2014-07-16T11:03:43Z</time></trkpt><trkpt lat="51.8635460548" lon="-2.0213752426"><ele>280.84</ele><time>2014-07-16T11:03:46Z</time></trkpt><trkpt lat="51.8635367509" lon="-2.0212740730"><ele>280.84</ele><time>2014-07-16T11:03:52Z</time></trkpt><trkpt lat="51.8635142036" lon="-2.0211278088"><ele>280.36</ele><time>2014-07-16T11:04:06Z</time></trkpt><trkpt lat="51.8635021336" lon="-2.0210240409"><ele>279.88</ele><time>2014-07-16T11:04:20Z</time></trkpt><trkpt lat="51.8634987809" lon="-2.0208243001"><ele>278.92</ele><time>2014-07-16T11:04:32Z</time></trkpt><trkpt lat="51.8634795025" lon="-2.0206113160"><ele>277.96</ele><time>2014-07-16T11:04:46Z</time></trkpt><trkpt lat="51.8634463940" lon="-2.0204130001"><ele>277.48</ele><time>2014-07-16T11:04:59Z</time></trkpt><trkpt lat="51.8634115253" lon="-2.0202519000"><ele>276.52</ele><time>2014-07-16T11:05:06Z</time></trkpt><trkpt lat="51.8634035625" lon="-2.0201569330"><ele>276.52</ele><time>2014-07-16T11:05:12Z</time></trkpt><trkpt lat="51.8633977789" lon="-2.0201213099"><ele>276.04</ele><time>2014-07-16T11:05:14Z</time></trkpt><trkpt lat="51.8633572105" lon="-2.0199590363"><ele>275.56</ele><time>2014-07-16T11:05:23Z</time></trkpt><trkpt lat="51.8633074220" lon="-2.0197972655"><ele>274.59</ele><time>2014-07-16T11:05:32Z</time></trkpt><trkpt lat="51.8633059971" lon="-2.0197621454"><ele>274.11</ele><time>2014-07-16T11:05:34Z</time></trkpt><trkpt lat="51.8632500898" lon="-2.0197111834"><ele>273.63</ele><time>2014-07-16T11:05:39Z</time></trkpt><trkpt lat="51.8632344157" lon="-2.0196765661"><ele>273.63</ele><time>2014-07-16T11:05:42Z</time></trkpt><trkpt lat="51.8631847948" lon="-2.0195246022"><ele>273.15</ele><time>2014-07-16T11:05:51Z</time></trkpt><trkpt lat="51.8631418794" lon="-2.0194488298"><ele>272.67</ele><time>2014-07-16T11:06:00Z</time></trkpt><trkpt lat="51.8631271273" lon="-2.0193808526"><ele>272.67</ele><time>2014-07-16T11:06:05Z</time></trkpt><trkpt lat="51.8631126266" lon="-2.0193505939"><ele>272.67</ele><time>2014-07-16T11:06:07Z</time></trkpt><trkpt lat="51.8630817812" lon="-2.0193371829"><ele>272.19</ele><time>2014-07-16T11:06:10Z</time></trkpt><trkpt lat="51.8630645983" lon="-2.0193124563"><ele>271.23</ele><time>2014-07-16T11:06:13Z</time></trkpt><trkpt lat="51.8629999738" lon="-2.0191570558"><ele>270.75</ele><time>2014-07-16T11:06:27Z</time></trkpt><trkpt lat="51.8629882392" lon="-2.0191279706"><ele>270.27</ele><time>2014-07-16T11:06:29Z</time></trkpt><trkpt lat="51.8628845550" lon="-2.0188965462"><ele>268.83</ele><time>2014-07-16T11:06:44Z</time></trkpt><trkpt lat="51.8628019933" lon="-2.0187551435"><ele>267.86</ele><time>2014-07-16T11:06:54Z</time></trkpt><trkpt lat="51.8627170846" lon="-2.0186616015"><ele>266.42</ele><time>2014-07-16T11:07:06Z</time></trkpt><trkpt lat="51.8626993988" lon="-2.0186252240"><ele>266.42</ele><time>2014-07-16T11:07:09Z</time></trkpt><trkpt lat="51.8626894243" lon="-2.0185903553"><ele>266.42</ele><time>2014-07-16T11:07:11Z</time></trkpt><trkpt lat="51.8626480177" lon="-2.0185263176"><ele>264.98</ele><time>2014-07-16T11:07:17Z</time></trkpt><trkpt lat="51.8626055215" lon="-2.0184647106"><ele>264.98</ele><time>2014-07-16T11:07:28Z</time></trkpt><trkpt lat="51.8625078723" lon="-2.0183751080"><ele>264.02</ele><time>2014-07-16T11:07:39Z</time></trkpt><trkpt lat="51.8624636997" lon="-2.0183403231"><ele>264.02</ele><time>2014-07-16T11:07:44Z</time></trkpt><trkpt lat="51.8624358717" lon="-2.0183031913"><ele>263.54</ele><time>2014-07-16T11:07:47Z</time></trkpt><trkpt lat="51.8623876758" lon="-2.0182753634"><ele>263.54</ele><time>2014-07-16T11:07:53Z</time></trkpt><trkpt lat="51.8623590935" lon="-2.0182088949"><ele>262.58</ele><time>2014-07-16T11:08:05Z</time></trkpt><trkpt lat="51.8623129930" lon="-2.0181774627"><ele>263.06</ele><time>2014-07-16T11:08:16Z</time></trkpt><trkpt lat="51.8623079639" lon="-2.0181601960"><ele>263.06</ele><time>2014-07-16T11:08:28Z</time></trkpt><trkpt lat="51.8621737696" lon="-2.0181006007"><ele>262.58</ele><time>2014-07-16T11:08:41Z</time></trkpt><trkpt lat="51.8620802276" lon="-2.0180302765"><ele>262.58</ele><time>2014-07-16T11:08:52Z</time></trkpt><trkpt lat="51.8620740250" lon="-2.0180300251"><ele>262.58</ele><time>2014-07-16T11:08:53Z</time></trkpt><trkpt lat="51.8619362265" lon="-2.0179408416"><ele>262.10</ele><time>2014-07-16T11:09:06Z</time></trkpt><trkpt lat="51.8618719373" lon="-2.0178883709"><ele>262.58</ele><time>2014-07-16T11:09:13Z</time></trkpt><trkpt lat="51.8618457858" lon="-2.0178727806"><ele>262.58</ele><time>2014-07-16T11:09:16Z</time></trkpt><trkpt lat="51.8618177064" lon="-2.0178334694"><ele>263.06</ele><time>2014-07-16T11:09:19Z</time></trkpt><trkpt lat="51.8617466278" lon="-2.0177689288"><ele>263.54</ele><time>2014-07-16T11:09:27Z</time></trkpt><trkpt lat="51.8616318796" lon="-2.0176528394"><ele>263.06</ele><time>2014-07-16T11:09:41Z</time></trkpt><trkpt lat="51.8616174627" lon="-2.0176479779"><ele>263.06</ele><time>2014-07-16T11:10:01Z</time></trkpt><trkpt lat="51.8615973461" lon="-2.0176482294"><ele>263.06</ele><time>2014-07-16T11:10:04Z</time></trkpt><trkpt lat="51.8615807500" lon="-2.0176206529"><ele>263.06</ele><time>2014-07-16T11:10:06Z</time></trkpt><trkpt lat="51.8615457974" lon="-2.0175998658"><ele>262.58</ele><time>2014-07-16T11:10:10Z</time></trkpt><trkpt lat="51.8615252618" lon="-2.0175761450"><ele>262.58</ele><time>2014-07-16T11:10:12Z</time></trkpt><trkpt lat="51.8614077475" lon="-2.0174186490"><ele>261.62</ele><time>2014-07-16T11:10:26Z</time></trkpt><trkpt lat="51.8613939174" lon="-2.0173896477"><ele>261.62</ele><time>2014-07-16T11:10:28Z</time></trkpt><trkpt lat="51.8613116909" lon="-2.0172928367"><ele>261.14</ele><time>2014-07-16T11:10:37Z</time></trkpt><trkpt lat="51.8612372596" lon="-2.0172207523"><ele>260.65</ele><time>2014-07-16T11:10:44Z</time></trkpt><trkpt lat="51.8612001278" lon="-2.0171702094"><ele>260.65</ele><time>2014-07-16T11:10:48Z</time></trkpt><trkpt lat="51.8610879779" lon="-2.0170619152"><ele>259.69</ele><time>2014-07-16T11:11:01Z</time></trkpt><trkpt lat="51.8610829487" lon="-2.0170545392"><ele>259.69</ele><time>2014-07-16T11:11:02Z</time></trkpt><trkpt lat="51.8609854672" lon="-2.0169510227"><ele>259.21</ele><time>2014-07-16T11:11:13Z</time></trkpt><trkpt lat="51.8609542865" lon="-2.0169314090"><ele>259.21</ele><time>2014-07-16T11:11:17Z</time></trkpt><trkpt lat="51.8609322421" lon="-2.0169134717"><ele>259.21</ele><time>2014-07-16T11:11:19Z</time></trkpt><trkpt lat="51.8608756643" lon="-2.0168759208"><ele>258.73</ele><time>2014-07-16T11:11:25Z</time></trkpt><trkpt lat="51.8608250376" lon="-2.0168301556"><ele>258.73</ele><time>2014-07-16T11:11:31Z</time></trkpt><trkpt lat="51.8607278075" lon="-2.0166961290"><ele>258.73</ele><time>2014-07-16T11:11:42Z</time></trkpt><trkpt lat="51.8607089482" lon="-2.0166740008"><ele>258.25</ele><time>2014-07-16T11:11:44Z</time></trkpt><trkpt lat="51.8606553040" lon="-2.0166105498"><ele>258.25</ele><time>2014-07-16T11:11:51Z</time></trkpt><trkpt lat="51.8605439086" lon="-2.0165413152"><ele>258.25</ele><time>2014-07-16T11:12:03Z</time></trkpt><trkpt lat="51.8604233768" lon="-2.0164122339"><ele>257.29</ele><time>2014-07-16T11:12:15Z</time></trkpt><trkpt lat="51.8603412341" lon="-2.0163766108"><ele>256.81</ele><time>2014-07-16T11:12:27Z</time></trkpt><trkpt lat="51.8602857459" lon="-2.0163299236"><ele>256.33</ele><time>2014-07-16T11:12:38Z</time></trkpt><trkpt lat="51.8602653779" lon="-2.0162836555"><ele>255.85</ele><time>2014-07-16T11:12:45Z</time></trkpt><trkpt lat="51.8602622766" lon="-2.0161488745"><ele>254.89</ele><time>2014-07-16T11:12:55Z</time></trkpt><trkpt lat="51.8603337742" lon="-2.0159607008"><ele>254.41</ele><time>2014-07-16T11:13:09Z</time></trkpt><trkpt lat="51.8603486940" lon="-2.0158698410"><ele>254.41</ele><time>2014-07-16T11:13:22Z</time></trkpt><trkpt lat="51.8603847362" lon="-2.0158272609"><ele>252.96</ele><time>2014-07-16T11:13:41Z</time></trkpt><trkpt lat="51.8604015838" lon="-2.0157591999"><ele>252.48</ele><time>2014-07-16T11:13:57Z</time></trkpt><trkpt lat="51.8604813796" lon="-2.0156385005"><ele>250.56</ele><time>2014-07-16T11:14:09Z</time></trkpt><trkpt lat="51.8605506141" lon="-2.0154865365"><ele>249.60</ele><time>2014-07-16T11:14:24Z</time></trkpt><trkpt lat="51.8605631031" lon="-2.0153715368"><ele>249.12</ele><time>2014-07-16T11:14:33Z</time></trkpt><trkpt lat="51.8605328444" lon="-2.0153207425"><ele>248.16</ele><time>2014-07-16T11:14:37Z</time></trkpt><trkpt lat="51.8605137337" lon="-2.0152943395"><ele>247.68</ele><time>2014-07-16T11:14:39Z</time></trkpt><trkpt lat="51.8604801223" lon="-2.0152323972"><ele>247.20</ele><time>2014-07-16T11:14:44Z</time></trkpt><trkpt lat="51.8603873346" lon="-2.0151127875"><ele>247.68</ele><time>2014-07-16T11:14:57Z</time></trkpt><trkpt lat="51.8603714928" lon="-2.0150929224"><ele>245.75</ele><time>2014-07-16T11:14:59Z</time></trkpt><trkpt lat="51.8603429943" lon="-2.0150677767"><ele>247.20</ele><time>2014-07-16T11:15:02Z</time></trkpt><trkpt lat="51.8603293318" lon="-2.0150519349"><ele>245.75</ele><time>2014-07-16T11:15:04Z</time></trkpt><trkpt lat="51.8602989055" lon="-2.0150156412"><ele>239.02</ele><time>2014-07-16T11:15:09Z</time></trkpt><trkpt lat="51.8602972291" lon="-2.0150065050"><ele>252.48</ele><time>2014-07-16T11:15:10Z</time></trkpt><trkpt lat="51.8602953013" lon="-2.0149988774"><ele>248.16</ele><time>2014-07-16T11:15:11Z</time></trkpt><trkpt lat="51.8602893502" lon="-2.0149864722"><ele>247.20</ele><time>2014-07-16T11:15:13Z</time></trkpt><trkpt lat="51.8602812197" lon="-2.0149780065"><ele>245.75</ele><time>2014-07-16T11:15:14Z</time></trkpt><trkpt lat="51.8602232169" lon="-2.0148408785"><ele>245.75</ele><time>2014-07-16T11:15:23Z</time></trkpt><trkpt lat="51.8601538986" lon="-2.0146804489"><ele>245.75</ele><time>2014-07-16T11:15:36Z</time></trkpt><trkpt lat="51.8601190299" lon="-2.0146320853"><ele>244.79</ele><time>2014-07-16T11:15:44Z</time></trkpt><trkpt lat="51.8601155095" lon="-2.0145776030"><ele>244.79</ele><time>2014-07-16T11:15:49Z</time></trkpt><trkpt lat="51.8600668944" lon="-2.0145029202"><ele>245.75</ele><time>2014-07-16T11:16:06Z</time></trkpt><trkpt lat="51.8600522261" lon="-2.0144553948"><ele>244.31</ele><time>2014-07-16T11:16:28Z</time></trkpt><trkpt lat="51.8600310199" lon="-2.0143190213"><ele>244.31</ele><time>2014-07-16T11:16:35Z</time></trkpt><trkpt lat="51.8600203749" lon="-2.0141747687"><ele>246.23</ele><time>2014-07-16T11:16:41Z</time></trkpt><trkpt lat="51.8600066286" lon="-2.0141215436"><ele>244.31</ele><time>2014-07-16T11:16:44Z</time></trkpt><trkpt lat="51.8599954806" lon="-2.0140872616"><ele>245.75</ele><time>2014-07-16T11:16:47Z</time></trkpt><trkpt lat="51.8599530682" lon="-2.0139168575"><ele>245.27</ele><time>2014-07-16T11:16:57Z</time></trkpt><trkpt lat="51.8598920479" lon="-2.0138164423"><ele>243.35</ele><time>2014-07-16T11:17:03Z</time></trkpt><trkpt lat="51.8598338775" lon="-2.0136584435"><ele>242.39</ele><time>2014-07-16T11:17:12Z</time></trkpt><trkpt lat="51.8597831670" lon="-2.0135820005"><ele>242.87</ele><time>2014-07-16T11:17:17Z</time></trkpt><trkpt lat="51.8597194646" lon="-2.0134763047"><ele>243.35</ele><time>2014-07-16T11:17:32Z</time></trkpt><trkpt lat="51.8597222306" lon="-2.0135034621"><ele>243.35</ele><time>2014-07-16T11:18:00Z</time></trkpt><trkpt lat="51.8597205542" lon="-2.0134678390"><ele>243.83</ele><time>2014-07-16T11:18:03Z</time></trkpt><trkpt lat="51.8597127590" lon="-2.0134129375"><ele>241.91</ele><time>2014-07-16T11:18:06Z</time></trkpt><trkpt lat="51.8596247490" lon="-2.0131896436"><ele>241.43</ele><time>2014-07-16T11:18:21Z</time></trkpt><trkpt lat="51.8596122600" lon="-2.0131690241"><ele>242.39</ele><time>2014-07-16T11:18:23Z</time></trkpt><trkpt lat="51.8595539220" lon="-2.0130624902"><ele>241.91</ele><time>2014-07-16T11:18:38Z</time></trkpt><trkpt lat="51.8595504854" lon="-2.0130383503"><ele>241.43</ele><time>2014-07-16T11:18:55Z</time></trkpt><trkpt lat="51.8595366552" lon="-2.0129899029"><ele>241.43</ele><time>2014-07-16T11:18:58Z</time></trkpt><trkpt lat="51.8594141956" lon="-2.0126569737"><ele>239.51</ele><time>2014-07-16T11:19:16Z</time></trkpt><trkpt lat="51.8594090827" lon="-2.0126342587"><ele>240.47</ele><time>2014-07-16T11:19:17Z</time></trkpt><trkpt lat="51.8593577016" lon="-2.0124724042"><ele>240.47</ele><time>2014-07-16T11:19:24Z</time></trkpt><trkpt lat="51.8593321368" lon="-2.0123898424"><ele>238.54</ele><time>2014-07-16T11:19:29Z</time></trkpt><trkpt lat="51.8593230844" lon="-2.0123171713"><ele>238.06</ele><time>2014-07-16T11:19:33Z</time></trkpt><trkpt lat="51.8592715356" lon="-2.0121611003"><ele>238.06</ele><time>2014-07-16T11:19:41Z</time></trkpt><trkpt lat="51.8591748923" lon="-2.0117348805"><ele>236.14</ele><time>2014-07-16T11:20:03Z</time></trkpt><trkpt lat="51.8591681868" lon="-2.0117156021"><ele>236.62</ele><time>2014-07-16T11:20:04Z</time></trkpt><trkpt lat="51.8591039814" lon="-2.0116065536"><ele>235.66</ele><time>2014-07-16T11:20:13Z</time></trkpt><trkpt lat="51.8590891454" lon="-2.0115491375"><ele>234.70</ele><time>2014-07-16T11:20:22Z</time></trkpt><trkpt lat="51.8590832781" lon="-2.0112401806"><ele>233.74</ele><time>2014-07-16T11:20:43Z</time></trkpt><trkpt lat="51.8590246886" lon="-2.0110432059"><ele>234.22</ele><time>2014-07-16T11:20:50Z</time></trkpt><trkpt lat="51.8590023089" lon="-2.0109788328"><ele>232.30</ele><time>2014-07-16T11:20:53Z</time></trkpt><trkpt lat="51.8589231838" lon="-2.0107717998"><ele>231.81</ele><time>2014-07-16T11:21:07Z</time></trkpt><trkpt lat="51.8588357605" lon="-2.0103866514"><ele>231.81</ele><time>2014-07-16T11:21:26Z</time></trkpt><trkpt lat="51.8588287197" lon="-2.0103428978"><ele>229.89</ele><time>2014-07-16T11:21:30Z</time></trkpt><trkpt lat="51.8588381913" lon="-2.0103086997"><ele>229.41</ele><time>2014-07-16T11:21:44Z</time></trkpt><trkpt lat="51.8588065077" lon="-2.0101326797"><ele>229.41</ele><time>2014-07-16T11:21:52Z</time></trkpt><trkpt lat="51.8587552942" lon="-2.0098880120"><ele>228.45</ele><time>2014-07-16T11:22:06Z</time></trkpt><trkpt lat="51.8587453198" lon="-2.0097419154"><ele>228.45</ele><time>2014-07-16T11:22:12Z</time></trkpt><trkpt lat="51.8587335013" lon="-2.0096294302"><ele>229.89</ele><time>2014-07-16T11:22:17Z</time></trkpt><trkpt lat="51.8587111216" lon="-2.0095215552"><ele>229.41</ele><time>2014-07-16T11:22:22Z</time></trkpt><trkpt lat="51.8587112054" lon="-2.0094179548"><ele>228.45</ele><time>2014-07-16T11:22:28Z</time></trkpt><trkpt lat="51.8587302323" lon="-2.0092794020"><ele>227.97</ele><time>2014-07-16T11:22:35Z</time></trkpt><trkpt lat="51.8587531149" lon="-2.0090413559"><ele>229.41</ele><time>2014-07-16T11:22:48Z</time></trkpt><trkpt lat="51.8587977905" lon="-2.0089785755"><ele>228.93</ele><time>2014-07-16T11:23:02Z</time></trkpt><trkpt lat="51.8588089384" lon="-2.0089291222"><ele>229.41</ele><time>2014-07-16T11:23:06Z</time></trkpt><trkpt lat="51.8588238582" lon="-2.0087280404"><ele>229.41</ele><time>2014-07-16T11:23:19Z</time></trkpt><trkpt lat="51.8587272149" lon="-2.0085258689"><ele>230.37</ele><time>2014-07-16T11:23:37Z</time></trkpt><trkpt lat="51.8587278016" lon="-2.0084065106"><ele>231.81</ele><time>2014-07-16T11:23:46Z</time></trkpt><trkpt lat="51.8587200902" lon="-2.0083713904"><ele>232.30</ele><time>2014-07-16T11:23:48Z</time></trkpt><trkpt lat="51.8587083556" lon="-2.0082716458"><ele>231.33</ele><time>2014-07-16T11:23:58Z</time></trkpt><trkpt lat="51.8587166537" lon="-2.0082551334"><ele>233.26</ele><time>2014-07-16T11:24:00Z</time></trkpt><trkpt lat="51.8587335013" lon="-2.0082270540"><ele>233.74</ele><time>2014-07-16T11:24:04Z</time></trkpt><trkpt lat="51.8587254547" lon="-2.0079075359"><ele>235.18</ele><time>2014-07-16T11:24:21Z</time></trkpt><trkpt lat="51.8587021530" lon="-2.0076511335"><ele>234.70</ele><time>2014-07-16T11:24:35Z</time></trkpt><trkpt lat="51.8587203417" lon="-2.0075807255"><ele>235.18</ele><time>2014-07-16T11:24:40Z</time></trkpt><trkpt lat="51.8587359320" lon="-2.0074999239"><ele>235.18</ele><time>2014-07-16T11:24:45Z</time></trkpt><trkpt lat="51.8587561324" lon="-2.0072995964"><ele>237.58</ele><time>2014-07-16T11:24:59Z</time></trkpt><trkpt lat="51.8587563839" lon="-2.0072382409"><ele>238.06</ele><time>2014-07-16T11:25:14Z</time></trkpt><trkpt lat="51.8587645981" lon="-2.0070860256"><ele>239.51</ele><time>2014-07-16T11:25:35Z</time></trkpt><trkpt lat="51.8587509356" lon="-2.0069191419"><ele>240.95</ele><time>2014-07-16T11:25:45Z</time></trkpt><trkpt lat="51.8587257899" lon="-2.0068171341"><ele>241.91</ele><time>2014-07-16T11:25:51Z</time></trkpt><trkpt lat="51.8586367741" lon="-2.0066277031"><ele>243.35</ele><time>2014-07-16T11:26:04Z</time></trkpt><trkpt lat="51.8585821241" lon="-2.0065764897"><ele>241.91</ele><time>2014-07-16T11:26:18Z</time></trkpt><trkpt lat="51.8585630972" lon="-2.0065384358"><ele>245.75</ele><time>2014-07-16T11:26:24Z</time></trkpt><trkpt lat="51.8585390411" lon="-2.0064901561"><ele>245.27</ele><time>2014-07-16T11:26:40Z</time></trkpt><trkpt lat="51.8585372809" lon="-2.0064866357"><ele>240.47</ele><time>2014-07-16T11:26:48Z</time></trkpt><trkpt lat="51.8585371971" lon="-2.0064783376"><ele>245.27</ele><time>2014-07-16T11:26:49Z</time></trkpt><trkpt lat="51.8585248757" lon="-2.0063704625"><ele>245.27</ele><time>2014-07-16T11:26:55Z</time></trkpt><trkpt lat="51.8584881630" lon="-2.0062132180"><ele>243.83</ele><time>2014-07-16T11:27:03Z</time></trkpt><trkpt lat="51.8584744167" lon="-2.0061294828"><ele>244.79</ele><time>2014-07-16T11:27:08Z</time></trkpt><trkpt lat="51.8584609218" lon="-2.0060339291"><ele>247.68</ele><time>2014-07-16T11:27:13Z</time></trkpt><trkpt lat="51.8584587425" lon="-2.0060199313"><ele>244.79</ele><time>2014-07-16T11:27:14Z</time></trkpt><trkpt lat="51.8584142346" lon="-2.0059123915"><ele>247.68</ele><time>2014-07-16T11:27:20Z</time></trkpt><trkpt lat="51.8583980575" lon="-2.0058268961"><ele>248.64</ele><time>2014-07-16T11:27:25Z</time></trkpt><trkpt lat="51.8583946209" lon="-2.0058110543"><ele>246.72</ele><time>2014-07-16T11:27:26Z</time></trkpt><trkpt lat="51.8583763484" lon="-2.0057421550"><ele>249.12</ele><time>2014-07-16T11:27:30Z</time></trkpt><trkpt lat="51.8583595846" lon="-2.0056913607"><ele>245.75</ele><time>2014-07-16T11:27:34Z</time></trkpt><trkpt lat="51.8583123107" lon="-2.0055410732"><ele>249.12</ele><time>2014-07-16T11:27:43Z</time></trkpt><trkpt lat="51.8582720775" lon="-2.0053835772"><ele>248.64</ele><time>2014-07-16T11:27:53Z</time></trkpt><trkpt lat="51.8582455069" lon="-2.0053014345"><ele>250.08</ele><time>2014-07-16T11:28:07Z</time></trkpt><trkpt lat="51.8582464289" lon="-2.0052821562"><ele>251.04</ele><time>2014-07-16T11:28:09Z</time></trkpt><trkpt lat="51.8582433276" lon="-2.0052570105"><ele>246.72</ele><time>2014-07-16T11:28:11Z</time></trkpt><trkpt lat="51.8582332693" lon="-2.0052118320"><ele>250.56</ele><time>2014-07-16T11:28:14Z</time></trkpt><trkpt lat="51.8582316767" lon="-2.0051994268"><ele>250.08</ele><time>2014-07-16T11:28:15Z</time></trkpt><trkpt lat="51.8582234625" lon="-2.0051746164"><ele>248.64</ele><time>2014-07-16T11:28:17Z</time></trkpt><trkpt lat="51.8581675552" lon="-2.0049549267"><ele>252.48</ele><time>2014-07-16T11:28:29Z</time></trkpt><trkpt lat="51.8581552338" lon="-2.0049313735"><ele>248.64</ele><time>2014-07-16T11:28:31Z</time></trkpt><trkpt lat="51.8581486959" lon="-2.0049146935"><ele>249.12</ele><time>2014-07-16T11:28:32Z</time></trkpt><trkpt lat="51.8581133243" lon="-2.0048222411"><ele>249.12</ele><time>2014-07-16T11:28:37Z</time></trkpt><trkpt lat="51.8580909446" lon="-2.0047318842"><ele>252.00</ele><time>2014-07-16T11:28:42Z</time></trkpt><trkpt lat="51.8580885138" lon="-2.0046987757"><ele>248.64</ele><time>2014-07-16T11:28:44Z</time></trkpt><trkpt lat="51.8580854125" lon="-2.0046766475"><ele>250.08</ele><time>2014-07-16T11:28:45Z</time></trkpt><trkpt lat="51.8580307625" lon="-2.0044201612"><ele>252.00</ele><time>2014-07-16T11:29:00Z</time></trkpt><trkpt lat="51.8579724245" lon="-2.0042009745"><ele>251.04</ele><time>2014-07-16T11:29:12Z</time></trkpt><trkpt lat="51.8579646293" lon="-2.0041628368"><ele>252.48</ele><time>2014-07-16T11:29:14Z</time></trkpt><trkpt lat="51.8579479493" lon="-2.0040697139"><ele>251.52</ele><time>2014-07-16T11:29:20Z</time></trkpt><trkpt lat="51.8579328619" lon="-2.0039974619"><ele>251.52</ele><time>2014-07-16T11:29:25Z</time></trkpt><trkpt lat="51.8579012621" lon="-2.0038480125"><ele>251.04</ele><time>2014-07-16T11:29:33Z</time></trkpt><trkpt lat="51.8578855041" lon="-2.0038351044"><ele>252.48</ele><time>2014-07-16T11:29:35Z</time></trkpt><trkpt lat="51.8578278366" lon="-2.0038567297"><ele>252.00</ele><time>2014-07-16T11:29:52Z</time></trkpt><trkpt lat="51.8578168564" lon="-2.0038618427"><ele>252.00</ele><time>2014-07-16T11:30:25Z</time></trkpt><trkpt lat="51.8578109052" lon="-2.0038555562"><ele>252.48</ele><time>2014-07-16T11:30:47Z</time></trkpt><trkpt lat="51.8578098156" lon="-2.0038552210"><ele>255.85</ele><time>2014-07-16T11:30:51Z</time></trkpt><trkpt lat="51.8578098994" lon="-2.0038553048"><ele>252.00</ele><time>2014-07-16T11:30:52Z</time></trkpt><trkpt lat="51.8578123301" lon="-2.0038444921"><ele>250.08</ele><time>2014-07-16T11:30:54Z</time></trkpt><trkpt lat="51.8578291778" lon="-2.0037496928"><ele>253.44</ele><time>2014-07-16T11:31:01Z</time></trkpt><trkpt lat="51.8578357995" lon="-2.0037394669"><ele>249.60</ele><time>2014-07-16T11:31:02Z</time></trkpt><trkpt lat="51.8578399066" lon="-2.0037268102"><ele>253.44</ele><time>2014-07-16T11:31:03Z</time></trkpt><trkpt lat="51.8578396551" lon="-2.0036286581"><ele>252.96</ele><time>2014-07-16T11:31:10Z</time></trkpt><trkpt lat="51.8578288425" lon="-2.0036026742"><ele>250.56</ele><time>2014-07-16T11:31:12Z</time></trkpt><trkpt lat="51.8578024395" lon="-2.0034961402"><ele>251.52</ele><time>2014-07-16T11:31:21Z</time></trkpt><trkpt lat="51.8577945605" lon="-2.0034781191"><ele>250.08</ele><time>2014-07-16T11:31:23Z</time></trkpt><trkpt lat="51.8577505555" lon="-2.0034061186"><ele>249.60</ele><time>2014-07-16T11:31:30Z</time></trkpt><trkpt lat="51.8577518128" lon="-2.0033649635"><ele>251.04</ele><time>2014-07-16T11:31:32Z</time></trkpt><trkpt lat="51.8577557523" lon="-2.0032164361"><ele>249.60</ele><time>2014-07-16T11:31:40Z</time></trkpt><trkpt lat="51.8577371445" lon="-2.0031270012"><ele>251.04</ele><time>2014-07-16T11:31:44Z</time></trkpt><trkpt lat="51.8577487953" lon="-2.0030836668"><ele>248.64</ele><time>2014-07-16T11:31:47Z</time></trkpt><trkpt lat="51.8577560876" lon="-2.0030467864"><ele>250.56</ele><time>2014-07-16T11:31:49Z</time></trkpt><trkpt lat="51.8577547465" lon="-2.0030135941"><ele>247.68</ele><time>2014-07-16T11:31:51Z</time></trkpt><trkpt lat="51.8577293493" lon="-2.0029170346"><ele>249.12</ele><time>2014-07-16T11:32:00Z</time></trkpt><trkpt lat="51.8577151839" lon="-2.0028822497"><ele>251.04</ele><time>2014-07-16T11:32:02Z</time></trkpt><trkpt lat="51.8576950673" lon="-2.0027580298"><ele>247.68</ele><time>2014-07-16T11:32:11Z</time></trkpt><trkpt lat="51.8576947320" lon="-2.0027446188"><ele>249.12</ele><time>2014-07-16T11:32:12Z</time></trkpt><trkpt lat="51.8576721009" lon="-2.0025235880"><ele>249.60</ele><time>2014-07-16T11:32:28Z</time></trkpt><trkpt lat="51.8576682452" lon="-2.0024852827"><ele>252.48</ele><time>2014-07-16T11:32:30Z</time></trkpt><trkpt lat="51.8576653115" lon="-2.0024608076"><ele>249.12</ele><time>2014-07-16T11:32:32Z</time></trkpt><trkpt lat="51.8576562591" lon="-2.0023923274"><ele>252.96</ele><time>2014-07-16T11:32:37Z</time></trkpt><trkpt lat="51.8576507270" lon="-2.0023614820"><ele>249.12</ele><time>2014-07-16T11:32:39Z</time></trkpt><trkpt lat="51.8576465361" lon="-2.0023444667"><ele>252.00</ele><time>2014-07-16T11:32:40Z</time></trkpt><trkpt lat="51.8576191273" lon="-2.0022883080"><ele>249.12</ele><time>2014-07-16T11:32:43Z</time></trkpt><trkpt lat="51.8575840071" lon="-2.0022119489"><ele>252.96</ele><time>2014-07-16T11:32:47Z</time></trkpt><trkpt lat="51.8575628009" lon="-2.0021743141"><ele>249.60</ele><time>2014-07-16T11:32:50Z</time></trkpt><trkpt lat="51.8575499766" lon="-2.0021312311"><ele>253.93</ele><time>2014-07-16T11:32:53Z</time></trkpt><trkpt lat="51.8575529102" lon="-2.0020902436"><ele>252.48</ele><time>2014-07-16T11:32:56Z</time></trkpt><trkpt lat="51.8575560953" lon="-2.0020782575"><ele>255.37</ele><time>2014-07-16T11:33:08Z</time></trkpt><trkpt lat="51.8575691711" lon="-2.0020101126"><ele>252.48</ele><time>2014-07-16T11:33:13Z</time></trkpt><trkpt lat="51.8575719371" lon="-2.0019950252"><ele>252.96</ele><time>2014-07-16T11:33:14Z</time></trkpt><trkpt lat="51.8575390801" lon="-2.0017548837"><ele>256.33</ele><time>2014-07-16T11:33:26Z</time></trkpt><trkpt lat="51.8575332128" lon="-2.0017352700"><ele>256.33</ele><time>2014-07-16T11:33:27Z</time></trkpt><trkpt lat="51.8575313687" lon="-2.0017052628"><ele>254.89</ele><time>2014-07-16T11:33:29Z</time></trkpt><trkpt lat="51.8575268425" lon="-2.0016573183"><ele>257.77</ele><time>2014-07-16T11:33:32Z</time></trkpt><trkpt lat="51.8574677501" lon="-2.0013523009"><ele>257.77</ele><time>2014-07-16T11:33:50Z</time></trkpt><trkpt lat="51.8573990185" lon="-2.0012389775"><ele>258.25</ele><time>2014-07-16T11:33:59Z</time></trkpt><trkpt lat="51.8572695181" lon="-2.0014138240"><ele>255.85</ele><time>2014-07-16T11:34:14Z</time></trkpt><trkpt lat="51.8572174665" lon="-2.0014847349"><ele>254.89</ele><time>2014-07-16T11:34:21Z</time></trkpt><trkpt lat="51.8571656663" lon="-2.0015599206"><ele>254.89</ele><time>2014-07-16T11:34:27Z</time></trkpt><trkpt lat="51.8570886366" lon="-2.0016532112"><ele>254.89</ele><time>2014-07-16T11:34:38Z</time></trkpt></trkseg></trk></gpx>